<?xml version="1.0" encoding="UTF-8" standalone="no" ?>
<gpx xmlns="http://www.topografix.com/GPX/1/1" xmlns:xsi="http://www.w3.org/2001/XMLSchema-instance" xsi:schemaLocation="http://www.topografix.com/GPX/1/1 http://www.topografix.com/GPX/1/1/gpx.xsd" version="1.1" creator="VisuGPX - https://www.visugpx.com">
  <metadata>
    <name>Sortie Moto</name>
  </metadata>
  <trk>
    <name><![CDATA[Journal actif: 2020-04-01 17:18]]></name>
    <trkseg>
      <trkpt lat="46.06749" lon="6.31167">
        <ele>562.03</ele>
        <time>2020-04-01T15:18:11Z</time>
      </trkpt>
      <trkpt lat="46.06752" lon="6.31169">
        <ele>562.51</ele>
        <time>2020-04-01T15:18:22Z</time>
      </trkpt>
      <trkpt lat="46.06746" lon="6.3117">
        <ele>550.49</ele>
        <time>2020-04-01T15:18:37Z</time>
      </trkpt>
      <trkpt lat="46.06744" lon="6.31178">
        <ele>547.61</ele>
        <time>2020-04-01T15:18:58Z</time>
      </trkpt>
      <trkpt lat="46.06741" lon="6.3118">
        <ele>551.93</ele>
        <time>2020-04-01T15:19:30Z</time>
      </trkpt>
      <trkpt lat="46.0673" lon="6.31196">
        <ele>551.93</ele>
        <time>2020-04-01T15:19:51Z</time>
      </trkpt>
      <trkpt lat="46.06725" lon="6.31239">
        <ele>548.09</ele>
        <time>2020-04-01T15:20:01Z</time>
      </trkpt>
      <trkpt lat="46.06718" lon="6.31253">
        <ele>547.61</ele>
        <time>2020-04-01T15:20:02Z</time>
      </trkpt>
      <trkpt lat="46.06718" lon="6.31254">
        <ele>547.61</ele>
        <time>2020-04-01T15:20:03Z</time>
      </trkpt>
      <trkpt lat="46.06719" lon="6.31262">
        <ele>547.13</ele>
        <time>2020-04-01T15:20:04Z</time>
      </trkpt>
      <trkpt lat="46.0672" lon="6.31268">
        <ele>546.65</ele>
        <time>2020-04-01T15:20:05Z</time>
      </trkpt>
      <trkpt lat="46.06723" lon="6.31268">
        <ele>547.61</ele>
        <time>2020-04-01T15:20:06Z</time>
      </trkpt>
      <trkpt lat="46.06727" lon="6.31269">
        <ele>547.61</ele>
        <time>2020-04-01T15:20:07Z</time>
      </trkpt>
      <trkpt lat="46.06728" lon="6.3127">
        <ele>547.61</ele>
        <time>2020-04-01T15:20:08Z</time>
      </trkpt>
      <trkpt lat="46.06731" lon="6.31276">
        <ele>547.13</ele>
        <time>2020-04-01T15:20:09Z</time>
      </trkpt>
      <trkpt lat="46.06734" lon="6.31284">
        <ele>547.13</ele>
        <time>2020-04-01T15:20:10Z</time>
      </trkpt>
      <trkpt lat="46.06737" lon="6.31293">
        <ele>546.65</ele>
        <time>2020-04-01T15:20:11Z</time>
      </trkpt>
      <trkpt lat="46.06741" lon="6.31304">
        <ele>546.65</ele>
        <time>2020-04-01T15:20:12Z</time>
      </trkpt>
      <trkpt lat="46.06744" lon="6.31315">
        <ele>546.65</ele>
        <time>2020-04-01T15:20:13Z</time>
      </trkpt>
      <trkpt lat="46.06747" lon="6.31324">
        <ele>546.17</ele>
        <time>2020-04-01T15:20:14Z</time>
      </trkpt>
      <trkpt lat="46.0675" lon="6.31334">
        <ele>546.17</ele>
        <time>2020-04-01T15:20:15Z</time>
      </trkpt>
      <trkpt lat="46.0675" lon="6.31346">
        <ele>546.17</ele>
        <time>2020-04-01T15:20:16Z</time>
      </trkpt>
      <trkpt lat="46.06751" lon="6.3136">
        <ele>546.65</ele>
        <time>2020-04-01T15:20:17Z</time>
      </trkpt>
      <trkpt lat="46.06752" lon="6.31373">
        <ele>546.17</ele>
        <time>2020-04-01T15:20:18Z</time>
      </trkpt>
      <trkpt lat="46.06753" lon="6.31386">
        <ele>546.17</ele>
        <time>2020-04-01T15:20:19Z</time>
      </trkpt>
      <trkpt lat="46.06759" lon="6.31397">
        <ele>545.2</ele>
        <time>2020-04-01T15:20:20Z</time>
      </trkpt>
      <trkpt lat="46.06773" lon="6.31427">
        <ele>543.76</ele>
        <time>2020-04-01T15:20:23Z</time>
      </trkpt>
      <trkpt lat="46.0678" lon="6.31441">
        <ele>543.28</ele>
        <time>2020-04-01T15:20:24Z</time>
      </trkpt>
      <trkpt lat="46.0679" lon="6.31442">
        <ele>545.2</ele>
        <time>2020-04-01T15:20:25Z</time>
      </trkpt>
      <trkpt lat="46.06799" lon="6.31443">
        <ele>545.2</ele>
        <time>2020-04-01T15:20:26Z</time>
      </trkpt>
      <trkpt lat="46.06809" lon="6.31444">
        <ele>545.2</ele>
        <time>2020-04-01T15:20:27Z</time>
      </trkpt>
      <trkpt lat="46.06906" lon="6.31443">
        <ele>542.8</ele>
        <time>2020-04-01T15:20:35Z</time>
      </trkpt>
      <trkpt lat="46.06919" lon="6.31442">
        <ele>542.32</ele>
        <time>2020-04-01T15:20:36Z</time>
      </trkpt>
      <trkpt lat="46.06931" lon="6.3144">
        <ele>541.84</ele>
        <time>2020-04-01T15:20:37Z</time>
      </trkpt>
      <trkpt lat="46.07021" lon="6.31424">
        <ele>537.51</ele>
        <time>2020-04-01T15:20:46Z</time>
      </trkpt>
      <trkpt lat="46.07116" lon="6.31409">
        <ele>535.11</ele>
        <time>2020-04-01T15:20:54Z</time>
      </trkpt>
      <trkpt lat="46.07191" lon="6.31396">
        <ele>531.75</ele>
        <time>2020-04-01T15:21:00Z</time>
      </trkpt>
      <trkpt lat="46.07204" lon="6.31393">
        <ele>531.27</ele>
        <time>2020-04-01T15:21:01Z</time>
      </trkpt>
      <trkpt lat="46.07216" lon="6.31391">
        <ele>530.3</ele>
        <time>2020-04-01T15:21:02Z</time>
      </trkpt>
      <trkpt lat="46.07342" lon="6.3137">
        <ele>525.98</ele>
        <time>2020-04-01T15:21:12Z</time>
      </trkpt>
      <trkpt lat="46.07373" lon="6.31366">
        <ele>525.5</ele>
        <time>2020-04-01T15:21:15Z</time>
      </trkpt>
      <trkpt lat="46.07381" lon="6.31365">
        <ele>525.5</ele>
        <time>2020-04-01T15:21:16Z</time>
      </trkpt>
      <trkpt lat="46.074" lon="6.31394">
        <ele>525.02</ele>
        <time>2020-04-01T15:21:17Z</time>
      </trkpt>
      <trkpt lat="46.07406" lon="6.31399">
        <ele>525.02</ele>
        <time>2020-04-01T15:21:19Z</time>
      </trkpt>
      <trkpt lat="46.07415" lon="6.31405">
        <ele>524.54</ele>
        <time>2020-04-01T15:21:20Z</time>
      </trkpt>
      <trkpt lat="46.07415" lon="6.31405">
        <ele>524.54</ele>
        <time>2020-04-01T15:21:22Z</time>
      </trkpt>
      <trkpt lat="46.07437" lon="6.31409">
        <ele>524.06</ele>
        <time>2020-04-01T15:21:23Z</time>
      </trkpt>
      <trkpt lat="46.07446" lon="6.31429">
        <ele>523.58</ele>
        <time>2020-04-01T15:21:24Z</time>
      </trkpt>
      <trkpt lat="46.07449" lon="6.31437">
        <ele>523.58</ele>
        <time>2020-04-01T15:21:25Z</time>
      </trkpt>
      <trkpt lat="46.07451" lon="6.31448">
        <ele>523.09</ele>
        <time>2020-04-01T15:21:26Z</time>
      </trkpt>
      <trkpt lat="46.0745" lon="6.31458">
        <ele>523.09</ele>
        <time>2020-04-01T15:21:27Z</time>
      </trkpt>
      <trkpt lat="46.07446" lon="6.31464">
        <ele>523.09</ele>
        <time>2020-04-01T15:21:28Z</time>
      </trkpt>
      <trkpt lat="46.07442" lon="6.31471">
        <ele>523.58</ele>
        <time>2020-04-01T15:21:29Z</time>
      </trkpt>
      <trkpt lat="46.07439" lon="6.31476">
        <ele>524.06</ele>
        <time>2020-04-01T15:21:30Z</time>
      </trkpt>
      <trkpt lat="46.07431" lon="6.31471">
        <ele>524.06</ele>
        <time>2020-04-01T15:21:31Z</time>
      </trkpt>
      <trkpt lat="46.07429" lon="6.31467">
        <ele>524.54</ele>
        <time>2020-04-01T15:21:32Z</time>
      </trkpt>
      <trkpt lat="46.07429" lon="6.31467">
        <ele>525.5</ele>
        <time>2020-04-01T15:21:38Z</time>
      </trkpt>
      <trkpt lat="46.07476" lon="6.3155">
        <ele>516.37</ele>
        <time>2020-04-01T15:24:11Z</time>
      </trkpt>
      <trkpt lat="46.07424" lon="6.31461">
        <ele>527.9</ele>
        <time>2020-04-01T15:24:40Z</time>
      </trkpt>
      <trkpt lat="46.07424" lon="6.31466">
        <ele>528.86</ele>
        <time>2020-04-01T15:24:43Z</time>
      </trkpt>
      <trkpt lat="46.07433" lon="6.31474">
        <ele>529.82</ele>
        <time>2020-04-01T15:24:47Z</time>
      </trkpt>
      <trkpt lat="46.07438" lon="6.31477">
        <ele>529.82</ele>
        <time>2020-04-01T15:24:48Z</time>
      </trkpt>
      <trkpt lat="46.07441" lon="6.31473">
        <ele>530.3</ele>
        <time>2020-04-01T15:24:49Z</time>
      </trkpt>
      <trkpt lat="46.07445" lon="6.31466">
        <ele>530.3</ele>
        <time>2020-04-01T15:24:50Z</time>
      </trkpt>
      <trkpt lat="46.0745" lon="6.31459">
        <ele>530.3</ele>
        <time>2020-04-01T15:24:51Z</time>
      </trkpt>
      <trkpt lat="46.07451" lon="6.31452">
        <ele>529.82</ele>
        <time>2020-04-01T15:24:52Z</time>
      </trkpt>
      <trkpt lat="46.0745" lon="6.31442">
        <ele>529.82</ele>
        <time>2020-04-01T15:24:54Z</time>
      </trkpt>
      <trkpt lat="46.07448" lon="6.31434">
        <ele>529.34</ele>
        <time>2020-04-01T15:24:55Z</time>
      </trkpt>
      <trkpt lat="46.07444" lon="6.31425">
        <ele>529.82</ele>
        <time>2020-04-01T15:24:56Z</time>
      </trkpt>
      <trkpt lat="46.07439" lon="6.31415">
        <ele>529.82</ele>
        <time>2020-04-01T15:24:57Z</time>
      </trkpt>
      <trkpt lat="46.07443" lon="6.31379">
        <ele>529.82</ele>
        <time>2020-04-01T15:24:58Z</time>
      </trkpt>
      <trkpt lat="46.07444" lon="6.31372">
        <ele>529.82</ele>
        <time>2020-04-01T15:24:59Z</time>
      </trkpt>
      <trkpt lat="46.07443" lon="6.3136">
        <ele>529.82</ele>
        <time>2020-04-01T15:25:00Z</time>
      </trkpt>
      <trkpt lat="46.07439" lon="6.31349">
        <ele>529.82</ele>
        <time>2020-04-01T15:25:01Z</time>
      </trkpt>
      <trkpt lat="46.07434" lon="6.3134">
        <ele>529.82</ele>
        <time>2020-04-01T15:25:02Z</time>
      </trkpt>
      <trkpt lat="46.07427" lon="6.31334">
        <ele>529.82</ele>
        <time>2020-04-01T15:25:03Z</time>
      </trkpt>
      <trkpt lat="46.07419" lon="6.31333">
        <ele>529.82</ele>
        <time>2020-04-01T15:25:04Z</time>
      </trkpt>
      <trkpt lat="46.07419" lon="6.31333">
        <ele>529.82</ele>
        <time>2020-04-01T15:25:05Z</time>
      </trkpt>
      <trkpt lat="46.07401" lon="6.31342">
        <ele>529.82</ele>
        <time>2020-04-01T15:25:06Z</time>
      </trkpt>
      <trkpt lat="46.07398" lon="6.31347">
        <ele>530.3</ele>
        <time>2020-04-01T15:25:07Z</time>
      </trkpt>
      <trkpt lat="46.07385" lon="6.31365">
        <ele>530.3</ele>
        <time>2020-04-01T15:25:08Z</time>
      </trkpt>
      <trkpt lat="46.07373" lon="6.31366">
        <ele>530.3</ele>
        <time>2020-04-01T15:25:09Z</time>
      </trkpt>
      <trkpt lat="46.07361" lon="6.31367">
        <ele>530.79</ele>
        <time>2020-04-01T15:25:10Z</time>
      </trkpt>
      <trkpt lat="46.07347" lon="6.31369">
        <ele>531.27</ele>
        <time>2020-04-01T15:25:11Z</time>
      </trkpt>
      <trkpt lat="46.07334" lon="6.31371">
        <ele>531.27</ele>
        <time>2020-04-01T15:25:12Z</time>
      </trkpt>
      <trkpt lat="46.07178" lon="6.31398">
        <ele>533.19</ele>
        <time>2020-04-01T15:25:23Z</time>
      </trkpt>
      <trkpt lat="46.07037" lon="6.31422">
        <ele>537.51</ele>
        <time>2020-04-01T15:25:34Z</time>
      </trkpt>
      <trkpt lat="46.06953" lon="6.31436">
        <ele>538.96</ele>
        <time>2020-04-01T15:25:43Z</time>
      </trkpt>
      <trkpt lat="46.0693" lon="6.3144">
        <ele>538.96</ele>
        <time>2020-04-01T15:25:45Z</time>
      </trkpt>
      <trkpt lat="46.06918" lon="6.31442">
        <ele>538.96</ele>
        <time>2020-04-01T15:25:46Z</time>
      </trkpt>
      <trkpt lat="46.06821" lon="6.31445">
        <ele>539.44</ele>
        <time>2020-04-01T15:25:55Z</time>
      </trkpt>
      <trkpt lat="46.06785" lon="6.31442">
        <ele>541.84</ele>
        <time>2020-04-01T15:26:02Z</time>
      </trkpt>
      <trkpt lat="46.06777" lon="6.31436">
        <ele>542.32</ele>
        <time>2020-04-01T15:26:04Z</time>
      </trkpt>
      <trkpt lat="46.06775" lon="6.31431">
        <ele>542.32</ele>
        <time>2020-04-01T15:26:05Z</time>
      </trkpt>
      <trkpt lat="46.06771" lon="6.31423">
        <ele>542.8</ele>
        <time>2020-04-01T15:26:06Z</time>
      </trkpt>
      <trkpt lat="46.06767" lon="6.31414">
        <ele>542.8</ele>
        <time>2020-04-01T15:26:07Z</time>
      </trkpt>
      <trkpt lat="46.06762" lon="6.31404">
        <ele>543.28</ele>
        <time>2020-04-01T15:26:08Z</time>
      </trkpt>
      <trkpt lat="46.06758" lon="6.31396">
        <ele>543.76</ele>
        <time>2020-04-01T15:26:09Z</time>
      </trkpt>
      <trkpt lat="46.06752" lon="6.31377">
        <ele>545.2</ele>
        <time>2020-04-01T15:26:11Z</time>
      </trkpt>
      <trkpt lat="46.06751" lon="6.31369">
        <ele>546.17</ele>
        <time>2020-04-01T15:26:12Z</time>
      </trkpt>
      <trkpt lat="46.06751" lon="6.31361">
        <ele>546.65</ele>
        <time>2020-04-01T15:26:13Z</time>
      </trkpt>
      <trkpt lat="46.06751" lon="6.31355">
        <ele>547.13</ele>
        <time>2020-04-01T15:26:14Z</time>
      </trkpt>
      <trkpt lat="46.06741" lon="6.31304">
        <ele>548.57</ele>
        <time>2020-04-01T15:26:21Z</time>
      </trkpt>
      <trkpt lat="46.06736" lon="6.31289">
        <ele>549.05</ele>
        <time>2020-04-01T15:26:23Z</time>
      </trkpt>
      <trkpt lat="46.06733" lon="6.31283">
        <ele>549.53</ele>
        <time>2020-04-01T15:26:24Z</time>
      </trkpt>
      <trkpt lat="46.06731" lon="6.31277">
        <ele>550.01</ele>
        <time>2020-04-01T15:26:25Z</time>
      </trkpt>
      <trkpt lat="46.06729" lon="6.31271">
        <ele>550.01</ele>
        <time>2020-04-01T15:26:26Z</time>
      </trkpt>
      <trkpt lat="46.06735" lon="6.31257">
        <ele>550.49</ele>
        <time>2020-04-01T15:26:27Z</time>
      </trkpt>
      <trkpt lat="46.06733" lon="6.31253">
        <ele>550.97</ele>
        <time>2020-04-01T15:26:28Z</time>
      </trkpt>
      <trkpt lat="46.06726" lon="6.31243">
        <ele>552.41</ele>
        <time>2020-04-01T15:26:30Z</time>
      </trkpt>
      <trkpt lat="46.06725" lon="6.31235">
        <ele>552.9</ele>
        <time>2020-04-01T15:26:31Z</time>
      </trkpt>
      <trkpt lat="46.06724" lon="6.31228">
        <ele>553.86</ele>
        <time>2020-04-01T15:26:33Z</time>
      </trkpt>
      <trkpt lat="46.06721" lon="6.31212">
        <ele>554.34</ele>
        <time>2020-04-01T15:26:34Z</time>
      </trkpt>
      <trkpt lat="46.06717" lon="6.31206">
        <ele>554.34</ele>
        <time>2020-04-01T15:26:35Z</time>
      </trkpt>
      <trkpt lat="46.06713" lon="6.31201">
        <ele>554.34</ele>
        <time>2020-04-01T15:26:36Z</time>
      </trkpt>
      <trkpt lat="46.0671" lon="6.31197">
        <ele>554.34</ele>
        <time>2020-04-01T15:26:37Z</time>
      </trkpt>
      <trkpt lat="46.06707" lon="6.31194">
        <ele>554.34</ele>
        <time>2020-04-01T15:26:38Z</time>
      </trkpt>
      <trkpt lat="46.06705" lon="6.31191">
        <ele>554.34</ele>
        <time>2020-04-01T15:26:39Z</time>
      </trkpt>
      <trkpt lat="46.06699" lon="6.31184">
        <ele>553.86</ele>
        <time>2020-04-01T15:26:41Z</time>
      </trkpt>
      <trkpt lat="46.0669" lon="6.31173">
        <ele>552.9</ele>
        <time>2020-04-01T15:26:43Z</time>
      </trkpt>
      <trkpt lat="46.06684" lon="6.31167">
        <ele>552.41</ele>
        <time>2020-04-01T15:26:44Z</time>
      </trkpt>
      <trkpt lat="46.06639" lon="6.31127">
        <ele>551.93</ele>
        <time>2020-04-01T15:26:50Z</time>
      </trkpt>
      <trkpt lat="46.06631" lon="6.31122">
        <ele>552.41</ele>
        <time>2020-04-01T15:26:51Z</time>
      </trkpt>
      <trkpt lat="46.06624" lon="6.31115">
        <ele>552.9</ele>
        <time>2020-04-01T15:26:52Z</time>
      </trkpt>
      <trkpt lat="46.06605" lon="6.31103">
        <ele>552.9</ele>
        <time>2020-04-01T15:26:55Z</time>
      </trkpt>
      <trkpt lat="46.066" lon="6.311">
        <ele>552.9</ele>
        <time>2020-04-01T15:26:56Z</time>
      </trkpt>
      <trkpt lat="46.06599" lon="6.3109">
        <ele>552.9</ele>
        <time>2020-04-01T15:26:57Z</time>
      </trkpt>
      <trkpt lat="46.066" lon="6.31082">
        <ele>552.9</ele>
        <time>2020-04-01T15:26:58Z</time>
      </trkpt>
      <trkpt lat="46.06602" lon="6.3107">
        <ele>552.9</ele>
        <time>2020-04-01T15:26:59Z</time>
      </trkpt>
      <trkpt lat="46.06604" lon="6.31055">
        <ele>552.9</ele>
        <time>2020-04-01T15:27:00Z</time>
      </trkpt>
      <trkpt lat="46.06611" lon="6.31005">
        <ele>552.9</ele>
        <time>2020-04-01T15:27:03Z</time>
      </trkpt>
      <trkpt lat="46.06621" lon="6.30959">
        <ele>554.34</ele>
        <time>2020-04-01T15:27:07Z</time>
      </trkpt>
      <trkpt lat="46.06628" lon="6.30924">
        <ele>554.82</ele>
        <time>2020-04-01T15:27:10Z</time>
      </trkpt>
      <trkpt lat="46.06632" lon="6.30913">
        <ele>554.82</ele>
        <time>2020-04-01T15:27:11Z</time>
      </trkpt>
      <trkpt lat="46.06649" lon="6.30911">
        <ele>554.82</ele>
        <time>2020-04-01T15:27:12Z</time>
      </trkpt>
      <trkpt lat="46.06649" lon="6.30911">
        <ele>555.3</ele>
        <time>2020-04-01T15:27:13Z</time>
      </trkpt>
      <trkpt lat="46.06656" lon="6.3091">
        <ele>555.3</ele>
        <time>2020-04-01T15:27:14Z</time>
      </trkpt>
      <trkpt lat="46.06692" lon="6.30901">
        <ele>558.18</ele>
        <time>2020-04-01T15:27:18Z</time>
      </trkpt>
      <trkpt lat="46.06697" lon="6.30893">
        <ele>558.18</ele>
        <time>2020-04-01T15:27:19Z</time>
      </trkpt>
      <trkpt lat="46.06703" lon="6.30884">
        <ele>558.18</ele>
        <time>2020-04-01T15:27:20Z</time>
      </trkpt>
      <trkpt lat="46.06722" lon="6.30854">
        <ele>558.66</ele>
        <time>2020-04-01T15:27:23Z</time>
      </trkpt>
      <trkpt lat="46.06749" lon="6.30812">
        <ele>560.11</ele>
        <time>2020-04-01T15:27:28Z</time>
      </trkpt>
      <trkpt lat="46.06749" lon="6.30812">
        <ele>560.11</ele>
        <time>2020-04-01T15:27:29Z</time>
      </trkpt>
      <trkpt lat="46.06758" lon="6.30798">
        <ele>560.59</ele>
        <time>2020-04-01T15:27:36Z</time>
      </trkpt>
      <trkpt lat="46.06758" lon="6.30798">
        <ele>561.07</ele>
        <time>2020-04-01T15:28:27Z</time>
      </trkpt>
      <trkpt lat="46.06759" lon="6.30801">
        <ele>569.72</ele>
        <time>2020-04-01T15:30:08Z</time>
      </trkpt>
      <trkpt lat="46.06776" lon="6.30784">
        <ele>559.62</ele>
        <time>2020-04-01T15:30:17Z</time>
      </trkpt>
      <trkpt lat="46.06791" lon="6.30772">
        <ele>561.07</ele>
        <time>2020-04-01T15:30:19Z</time>
      </trkpt>
      <trkpt lat="46.06799" lon="6.30765">
        <ele>562.03</ele>
        <time>2020-04-01T15:30:20Z</time>
      </trkpt>
      <trkpt lat="46.06797" lon="6.30756">
        <ele>564.91</ele>
        <time>2020-04-01T15:30:25Z</time>
      </trkpt>
      <trkpt lat="46.06789" lon="6.30718">
        <ele>566.83</ele>
        <time>2020-04-01T15:30:27Z</time>
      </trkpt>
      <trkpt lat="46.06786" lon="6.30703">
        <ele>567.8</ele>
        <time>2020-04-01T15:30:28Z</time>
      </trkpt>
      <trkpt lat="46.06784" lon="6.30652">
        <ele>571.16</ele>
        <time>2020-04-01T15:30:33Z</time>
      </trkpt>
      <trkpt lat="46.06783" lon="6.30631">
        <ele>573.56</ele>
        <time>2020-04-01T15:30:35Z</time>
      </trkpt>
      <trkpt lat="46.06782" lon="6.3062">
        <ele>575.01</ele>
        <time>2020-04-01T15:30:36Z</time>
      </trkpt>
      <trkpt lat="46.06784" lon="6.30605">
        <ele>575.97</ele>
        <time>2020-04-01T15:30:37Z</time>
      </trkpt>
      <trkpt lat="46.06818" lon="6.30496">
        <ele>578.85</ele>
        <time>2020-04-01T15:30:47Z</time>
      </trkpt>
      <trkpt lat="46.0685" lon="6.30405">
        <ele>582.22</ele>
        <time>2020-04-01T15:30:56Z</time>
      </trkpt>
      <trkpt lat="46.06858" lon="6.3037">
        <ele>583.66</ele>
        <time>2020-04-01T15:30:59Z</time>
      </trkpt>
      <trkpt lat="46.06858" lon="6.30358">
        <ele>583.66</ele>
        <time>2020-04-01T15:31:00Z</time>
      </trkpt>
      <trkpt lat="46.06861" lon="6.3026">
        <ele>586.06</ele>
        <time>2020-04-01T15:31:08Z</time>
      </trkpt>
      <trkpt lat="46.06864" lon="6.30249">
        <ele>586.06</ele>
        <time>2020-04-01T15:31:09Z</time>
      </trkpt>
      <trkpt lat="46.06867" lon="6.3024">
        <ele>586.54</ele>
        <time>2020-04-01T15:31:10Z</time>
      </trkpt>
      <trkpt lat="46.06885" lon="6.30233">
        <ele>586.54</ele>
        <time>2020-04-01T15:31:11Z</time>
      </trkpt>
      <trkpt lat="46.0695" lon="6.30196">
        <ele>587.98</ele>
        <time>2020-04-01T15:31:18Z</time>
      </trkpt>
      <trkpt lat="46.0697" lon="6.30177">
        <ele>587.98</ele>
        <time>2020-04-01T15:31:20Z</time>
      </trkpt>
      <trkpt lat="46.07045" lon="6.30075">
        <ele>589.91</ele>
        <time>2020-04-01T15:31:29Z</time>
      </trkpt>
      <trkpt lat="46.0705" lon="6.30068">
        <ele>590.87</ele>
        <time>2020-04-01T15:31:30Z</time>
      </trkpt>
      <trkpt lat="46.07055" lon="6.30062">
        <ele>591.83</ele>
        <time>2020-04-01T15:31:31Z</time>
      </trkpt>
      <trkpt lat="46.0706" lon="6.30057">
        <ele>592.31</ele>
        <time>2020-04-01T15:31:32Z</time>
      </trkpt>
      <trkpt lat="46.07065" lon="6.30053">
        <ele>592.79</ele>
        <time>2020-04-01T15:31:33Z</time>
      </trkpt>
      <trkpt lat="46.07078" lon="6.30057">
        <ele>593.27</ele>
        <time>2020-04-01T15:31:34Z</time>
      </trkpt>
      <trkpt lat="46.0708" lon="6.30058">
        <ele>593.75</ele>
        <time>2020-04-01T15:31:35Z</time>
      </trkpt>
      <trkpt lat="46.07088" lon="6.30059">
        <ele>593.75</ele>
        <time>2020-04-01T15:31:36Z</time>
      </trkpt>
      <trkpt lat="46.07093" lon="6.30053">
        <ele>593.75</ele>
        <time>2020-04-01T15:31:37Z</time>
      </trkpt>
      <trkpt lat="46.071" lon="6.30038">
        <ele>592.31</ele>
        <time>2020-04-01T15:31:39Z</time>
      </trkpt>
      <trkpt lat="46.07215" lon="6.29943">
        <ele>590.87</ele>
        <time>2020-04-01T15:31:48Z</time>
      </trkpt>
      <trkpt lat="46.07315" lon="6.29864">
        <ele>592.79</ele>
        <time>2020-04-01T15:31:58Z</time>
      </trkpt>
      <trkpt lat="46.07369" lon="6.29822">
        <ele>595.19</ele>
        <time>2020-04-01T15:32:05Z</time>
      </trkpt>
      <trkpt lat="46.07496" lon="6.29743">
        <ele>596.15</ele>
        <time>2020-04-01T15:32:15Z</time>
      </trkpt>
      <trkpt lat="46.0751" lon="6.29737">
        <ele>596.15</ele>
        <time>2020-04-01T15:32:16Z</time>
      </trkpt>
      <trkpt lat="46.07524" lon="6.29736">
        <ele>596.15</ele>
        <time>2020-04-01T15:32:17Z</time>
      </trkpt>
      <trkpt lat="46.0758" lon="6.29743">
        <ele>596.15</ele>
        <time>2020-04-01T15:32:21Z</time>
      </trkpt>
      <trkpt lat="46.07593" lon="6.29749">
        <ele>595.67</ele>
        <time>2020-04-01T15:32:22Z</time>
      </trkpt>
      <trkpt lat="46.07622" lon="6.2976">
        <ele>594.23</ele>
        <time>2020-04-01T15:32:24Z</time>
      </trkpt>
      <trkpt lat="46.07637" lon="6.29761">
        <ele>593.27</ele>
        <time>2020-04-01T15:32:25Z</time>
      </trkpt>
      <trkpt lat="46.07653" lon="6.29761">
        <ele>592.31</ele>
        <time>2020-04-01T15:32:26Z</time>
      </trkpt>
      <trkpt lat="46.07669" lon="6.29758">
        <ele>591.35</ele>
        <time>2020-04-01T15:32:27Z</time>
      </trkpt>
      <trkpt lat="46.07683" lon="6.29749">
        <ele>590.39</ele>
        <time>2020-04-01T15:32:28Z</time>
      </trkpt>
      <trkpt lat="46.07698" lon="6.29739">
        <ele>588.95</ele>
        <time>2020-04-01T15:32:29Z</time>
      </trkpt>
      <trkpt lat="46.07714" lon="6.29729">
        <ele>587.5</ele>
        <time>2020-04-01T15:32:30Z</time>
      </trkpt>
      <trkpt lat="46.07797" lon="6.29667">
        <ele>587.5</ele>
        <time>2020-04-01T15:32:36Z</time>
      </trkpt>
      <trkpt lat="46.07805" lon="6.29657">
        <ele>587.98</ele>
        <time>2020-04-01T15:32:37Z</time>
      </trkpt>
      <trkpt lat="46.07812" lon="6.29649">
        <ele>588.46</ele>
        <time>2020-04-01T15:32:38Z</time>
      </trkpt>
      <trkpt lat="46.07817" lon="6.29641">
        <ele>588.46</ele>
        <time>2020-04-01T15:32:39Z</time>
      </trkpt>
      <trkpt lat="46.0782" lon="6.29634">
        <ele>588.95</ele>
        <time>2020-04-01T15:32:40Z</time>
      </trkpt>
      <trkpt lat="46.07819" lon="6.29624">
        <ele>589.43</ele>
        <time>2020-04-01T15:32:41Z</time>
      </trkpt>
      <trkpt lat="46.07814" lon="6.29621">
        <ele>589.91</ele>
        <time>2020-04-01T15:32:42Z</time>
      </trkpt>
      <trkpt lat="46.07808" lon="6.29617">
        <ele>590.39</ele>
        <time>2020-04-01T15:32:43Z</time>
      </trkpt>
      <trkpt lat="46.07802" lon="6.29618">
        <ele>590.87</ele>
        <time>2020-04-01T15:32:44Z</time>
      </trkpt>
      <trkpt lat="46.07793" lon="6.29624">
        <ele>591.35</ele>
        <time>2020-04-01T15:32:45Z</time>
      </trkpt>
      <trkpt lat="46.07784" lon="6.29631">
        <ele>591.35</ele>
        <time>2020-04-01T15:32:46Z</time>
      </trkpt>
      <trkpt lat="46.07774" lon="6.29638">
        <ele>591.83</ele>
        <time>2020-04-01T15:32:47Z</time>
      </trkpt>
      <trkpt lat="46.07766" lon="6.29645">
        <ele>591.83</ele>
        <time>2020-04-01T15:32:48Z</time>
      </trkpt>
      <trkpt lat="46.07758" lon="6.2965">
        <ele>592.31</ele>
        <time>2020-04-01T15:32:50Z</time>
      </trkpt>
      <trkpt lat="46.07742" lon="6.29645">
        <ele>592.31</ele>
        <time>2020-04-01T15:32:51Z</time>
      </trkpt>
      <trkpt lat="46.07734" lon="6.29641">
        <ele>592.31</ele>
        <time>2020-04-01T15:32:52Z</time>
      </trkpt>
      <trkpt lat="46.07722" lon="6.29634">
        <ele>592.31</ele>
        <time>2020-04-01T15:32:53Z</time>
      </trkpt>
      <trkpt lat="46.07717" lon="6.2962">
        <ele>592.79</ele>
        <time>2020-04-01T15:32:54Z</time>
      </trkpt>
      <trkpt lat="46.07712" lon="6.29603">
        <ele>592.79</ele>
        <time>2020-04-01T15:32:55Z</time>
      </trkpt>
      <trkpt lat="46.07706" lon="6.29584">
        <ele>593.27</ele>
        <time>2020-04-01T15:32:56Z</time>
      </trkpt>
      <trkpt lat="46.07699" lon="6.29563">
        <ele>594.23</ele>
        <time>2020-04-01T15:32:57Z</time>
      </trkpt>
      <trkpt lat="46.07624" lon="6.29359">
        <ele>605.77</ele>
        <time>2020-04-01T15:33:05Z</time>
      </trkpt>
      <trkpt lat="46.07533" lon="6.29207">
        <ele>616.34</ele>
        <time>2020-04-01T15:33:12Z</time>
      </trkpt>
      <trkpt lat="46.07482" lon="6.29066">
        <ele>624.03</ele>
        <time>2020-04-01T15:33:18Z</time>
      </trkpt>
      <trkpt lat="46.07452" lon="6.28973">
        <ele>627.88</ele>
        <time>2020-04-01T15:33:22Z</time>
      </trkpt>
      <trkpt lat="46.0744" lon="6.28952">
        <ele>628.36</ele>
        <time>2020-04-01T15:33:23Z</time>
      </trkpt>
      <trkpt lat="46.07427" lon="6.2893">
        <ele>629.32</ele>
        <time>2020-04-01T15:33:24Z</time>
      </trkpt>
      <trkpt lat="46.07413" lon="6.28908">
        <ele>629.8</ele>
        <time>2020-04-01T15:33:25Z</time>
      </trkpt>
      <trkpt lat="46.07395" lon="6.28889">
        <ele>630.76</ele>
        <time>2020-04-01T15:33:26Z</time>
      </trkpt>
      <trkpt lat="46.07375" lon="6.28873">
        <ele>631.72</ele>
        <time>2020-04-01T15:33:27Z</time>
      </trkpt>
      <trkpt lat="46.07353" lon="6.28858">
        <ele>633.17</ele>
        <time>2020-04-01T15:33:28Z</time>
      </trkpt>
      <trkpt lat="46.07329" lon="6.28847">
        <ele>634.13</ele>
        <time>2020-04-01T15:33:29Z</time>
      </trkpt>
      <trkpt lat="46.07304" lon="6.28838">
        <ele>635.57</ele>
        <time>2020-04-01T15:33:30Z</time>
      </trkpt>
      <trkpt lat="46.07277" lon="6.28833">
        <ele>637.49</ele>
        <time>2020-04-01T15:33:31Z</time>
      </trkpt>
      <trkpt lat="46.07249" lon="6.28829">
        <ele>638.93</ele>
        <time>2020-04-01T15:33:32Z</time>
      </trkpt>
      <trkpt lat="46.07221" lon="6.28826">
        <ele>640.38</ele>
        <time>2020-04-01T15:33:33Z</time>
      </trkpt>
      <trkpt lat="46.07053" lon="6.28807">
        <ele>649.03</ele>
        <time>2020-04-01T15:33:39Z</time>
      </trkpt>
      <trkpt lat="46.07028" lon="6.288">
        <ele>650.47</ele>
        <time>2020-04-01T15:33:40Z</time>
      </trkpt>
      <trkpt lat="46.07005" lon="6.28786">
        <ele>651.91</ele>
        <time>2020-04-01T15:33:41Z</time>
      </trkpt>
      <trkpt lat="46.06982" lon="6.2877">
        <ele>654.31</ele>
        <time>2020-04-01T15:33:42Z</time>
      </trkpt>
      <trkpt lat="46.0696" lon="6.28754">
        <ele>656.24</ele>
        <time>2020-04-01T15:33:43Z</time>
      </trkpt>
      <trkpt lat="46.06828" lon="6.2868">
        <ele>665.37</ele>
        <time>2020-04-01T15:33:49Z</time>
      </trkpt>
      <trkpt lat="46.06806" lon="6.28674">
        <ele>666.33</ele>
        <time>2020-04-01T15:33:50Z</time>
      </trkpt>
      <trkpt lat="46.06782" lon="6.28674">
        <ele>667.77</ele>
        <time>2020-04-01T15:33:51Z</time>
      </trkpt>
      <trkpt lat="46.06759" lon="6.28678">
        <ele>668.73</ele>
        <time>2020-04-01T15:33:52Z</time>
      </trkpt>
      <trkpt lat="46.06735" lon="6.28683">
        <ele>669.7</ele>
        <time>2020-04-01T15:33:53Z</time>
      </trkpt>
      <trkpt lat="46.06712" lon="6.28694">
        <ele>671.14</ele>
        <time>2020-04-01T15:33:54Z</time>
      </trkpt>
      <trkpt lat="46.0669" lon="6.28707">
        <ele>672.58</ele>
        <time>2020-04-01T15:33:55Z</time>
      </trkpt>
      <trkpt lat="46.06667" lon="6.28721">
        <ele>673.54</ele>
        <time>2020-04-01T15:33:56Z</time>
      </trkpt>
      <trkpt lat="46.06525" lon="6.28806">
        <ele>679.79</ele>
        <time>2020-04-01T15:34:03Z</time>
      </trkpt>
      <trkpt lat="46.06469" lon="6.28829">
        <ele>682.67</ele>
        <time>2020-04-01T15:34:07Z</time>
      </trkpt>
      <trkpt lat="46.06452" lon="6.28819">
        <ele>683.15</ele>
        <time>2020-04-01T15:34:08Z</time>
      </trkpt>
      <trkpt lat="46.06439" lon="6.28817">
        <ele>684.12</ele>
        <time>2020-04-01T15:34:10Z</time>
      </trkpt>
      <trkpt lat="46.0643" lon="6.28824">
        <ele>684.12</ele>
        <time>2020-04-01T15:34:11Z</time>
      </trkpt>
      <trkpt lat="46.0642" lon="6.28838">
        <ele>684.12</ele>
        <time>2020-04-01T15:34:12Z</time>
      </trkpt>
      <trkpt lat="46.06407" lon="6.2884">
        <ele>684.12</ele>
        <time>2020-04-01T15:34:13Z</time>
      </trkpt>
      <trkpt lat="46.06392" lon="6.28843">
        <ele>684.6</ele>
        <time>2020-04-01T15:34:14Z</time>
      </trkpt>
      <trkpt lat="46.06375" lon="6.28847">
        <ele>685.08</ele>
        <time>2020-04-01T15:34:15Z</time>
      </trkpt>
      <trkpt lat="46.06244" lon="6.28883">
        <ele>691.33</ele>
        <time>2020-04-01T15:34:21Z</time>
      </trkpt>
      <trkpt lat="46.05948" lon="6.28981">
        <ele>707.19</ele>
        <time>2020-04-01T15:34:34Z</time>
      </trkpt>
      <trkpt lat="46.058" lon="6.29007">
        <ele>714.88</ele>
        <time>2020-04-01T15:34:40Z</time>
      </trkpt>
      <trkpt lat="46.05774" lon="6.29002">
        <ele>716.32</ele>
        <time>2020-04-01T15:34:41Z</time>
      </trkpt>
      <trkpt lat="46.05749" lon="6.28994">
        <ele>717.76</ele>
        <time>2020-04-01T15:34:42Z</time>
      </trkpt>
      <trkpt lat="46.05725" lon="6.28982">
        <ele>719.2</ele>
        <time>2020-04-01T15:34:43Z</time>
      </trkpt>
      <trkpt lat="46.05702" lon="6.28967">
        <ele>720.16</ele>
        <time>2020-04-01T15:34:44Z</time>
      </trkpt>
      <trkpt lat="46.05679" lon="6.2895">
        <ele>721.13</ele>
        <time>2020-04-01T15:34:45Z</time>
      </trkpt>
      <trkpt lat="46.05658" lon="6.28927">
        <ele>722.09</ele>
        <time>2020-04-01T15:34:46Z</time>
      </trkpt>
      <trkpt lat="46.05639" lon="6.28901">
        <ele>723.53</ele>
        <time>2020-04-01T15:34:47Z</time>
      </trkpt>
      <trkpt lat="46.05621" lon="6.28872">
        <ele>724.97</ele>
        <time>2020-04-01T15:34:48Z</time>
      </trkpt>
      <trkpt lat="46.05605" lon="6.28843">
        <ele>726.41</ele>
        <time>2020-04-01T15:34:49Z</time>
      </trkpt>
      <trkpt lat="46.05591" lon="6.2881">
        <ele>727.86</ele>
        <time>2020-04-01T15:34:50Z</time>
      </trkpt>
      <trkpt lat="46.05578" lon="6.28777">
        <ele>728.82</ele>
        <time>2020-04-01T15:34:51Z</time>
      </trkpt>
      <trkpt lat="46.05475" lon="6.28481">
        <ele>738.91</ele>
        <time>2020-04-01T15:35:00Z</time>
      </trkpt>
      <trkpt lat="46.05359" lon="6.28153">
        <ele>746.6</ele>
        <time>2020-04-01T15:35:11Z</time>
      </trkpt>
      <trkpt lat="46.05245" lon="6.27827">
        <ele>753.33</ele>
        <time>2020-04-01T15:35:23Z</time>
      </trkpt>
      <trkpt lat="46.05163" lon="6.27554">
        <ele>755.73</ele>
        <time>2020-04-01T15:35:33Z</time>
      </trkpt>
      <trkpt lat="46.05128" lon="6.27304">
        <ele>761.5</ele>
        <time>2020-04-01T15:35:42Z</time>
      </trkpt>
      <trkpt lat="46.05134" lon="6.27024">
        <ele>768.23</ele>
        <time>2020-04-01T15:35:52Z</time>
      </trkpt>
      <trkpt lat="46.05139" lon="6.26736">
        <ele>772.08</ele>
        <time>2020-04-01T15:36:02Z</time>
      </trkpt>
      <trkpt lat="46.05106" lon="6.26627">
        <ele>774</ele>
        <time>2020-04-01T15:36:06Z</time>
      </trkpt>
      <trkpt lat="46.05094" lon="6.26602">
        <ele>774.96</ele>
        <time>2020-04-01T15:36:07Z</time>
      </trkpt>
      <trkpt lat="46.05082" lon="6.26578">
        <ele>775.92</ele>
        <time>2020-04-01T15:36:08Z</time>
      </trkpt>
      <trkpt lat="46.05068" lon="6.26556">
        <ele>776.88</ele>
        <time>2020-04-01T15:36:09Z</time>
      </trkpt>
      <trkpt lat="46.05055" lon="6.26538">
        <ele>777.84</ele>
        <time>2020-04-01T15:36:10Z</time>
      </trkpt>
      <trkpt lat="46.05037" lon="6.26521">
        <ele>778.81</ele>
        <time>2020-04-01T15:36:11Z</time>
      </trkpt>
      <trkpt lat="46.05021" lon="6.26505">
        <ele>779.77</ele>
        <time>2020-04-01T15:36:12Z</time>
      </trkpt>
      <trkpt lat="46.05006" lon="6.2649">
        <ele>780.73</ele>
        <time>2020-04-01T15:36:13Z</time>
      </trkpt>
      <trkpt lat="46.0499" lon="6.26475">
        <ele>781.69</ele>
        <time>2020-04-01T15:36:14Z</time>
      </trkpt>
      <trkpt lat="46.04857" lon="6.26338">
        <ele>788.42</ele>
        <time>2020-04-01T15:36:23Z</time>
      </trkpt>
      <trkpt lat="46.04737" lon="6.26097">
        <ele>797.07</ele>
        <time>2020-04-01T15:36:34Z</time>
      </trkpt>
      <trkpt lat="46.04582" lon="6.25778">
        <ele>802.84</ele>
        <time>2020-04-01T15:36:48Z</time>
      </trkpt>
      <trkpt lat="46.04487" lon="6.25578">
        <ele>803.32</ele>
        <time>2020-04-01T15:36:57Z</time>
      </trkpt>
      <trkpt lat="46.04449" lon="6.25489">
        <ele>803.32</ele>
        <time>2020-04-01T15:37:01Z</time>
      </trkpt>
      <trkpt lat="46.04443" lon="6.25464">
        <ele>803.32</ele>
        <time>2020-04-01T15:37:02Z</time>
      </trkpt>
      <trkpt lat="46.04372" lon="6.25163">
        <ele>798.51</ele>
        <time>2020-04-01T15:37:13Z</time>
      </trkpt>
      <trkpt lat="46.04318" lon="6.25031">
        <ele>791.78</ele>
        <time>2020-04-01T15:37:19Z</time>
      </trkpt>
      <trkpt lat="46.04213" lon="6.24879">
        <ele>784.57</ele>
        <time>2020-04-01T15:37:26Z</time>
      </trkpt>
      <trkpt lat="46.04118" lon="6.24759">
        <ele>786.5</ele>
        <time>2020-04-01T15:37:31Z</time>
      </trkpt>
      <trkpt lat="46.04097" lon="6.24744">
        <ele>787.46</ele>
        <time>2020-04-01T15:37:32Z</time>
      </trkpt>
      <trkpt lat="46.04075" lon="6.24731">
        <ele>787.94</ele>
        <time>2020-04-01T15:37:33Z</time>
      </trkpt>
      <trkpt lat="46.04053" lon="6.24721">
        <ele>788.9</ele>
        <time>2020-04-01T15:37:34Z</time>
      </trkpt>
      <trkpt lat="46.04029" lon="6.24713">
        <ele>789.38</ele>
        <time>2020-04-01T15:37:35Z</time>
      </trkpt>
      <trkpt lat="46.04005" lon="6.24707">
        <ele>790.34</ele>
        <time>2020-04-01T15:37:36Z</time>
      </trkpt>
      <trkpt lat="46.03961" lon="6.24688">
        <ele>790.82</ele>
        <time>2020-04-01T15:37:38Z</time>
      </trkpt>
      <trkpt lat="46.0394" lon="6.24675">
        <ele>791.3</ele>
        <time>2020-04-01T15:37:39Z</time>
      </trkpt>
      <trkpt lat="46.0392" lon="6.24657">
        <ele>790.82</ele>
        <time>2020-04-01T15:37:40Z</time>
      </trkpt>
      <trkpt lat="46.039" lon="6.24637">
        <ele>790.82</ele>
        <time>2020-04-01T15:37:41Z</time>
      </trkpt>
      <trkpt lat="46.03882" lon="6.24613">
        <ele>790.82</ele>
        <time>2020-04-01T15:37:42Z</time>
      </trkpt>
      <trkpt lat="46.03864" lon="6.24586">
        <ele>790.34</ele>
        <time>2020-04-01T15:37:43Z</time>
      </trkpt>
      <trkpt lat="46.03851" lon="6.24553">
        <ele>789.86</ele>
        <time>2020-04-01T15:37:44Z</time>
      </trkpt>
      <trkpt lat="46.03839" lon="6.24519">
        <ele>789.38</ele>
        <time>2020-04-01T15:37:45Z</time>
      </trkpt>
      <trkpt lat="46.03831" lon="6.24482">
        <ele>788.42</ele>
        <time>2020-04-01T15:37:46Z</time>
      </trkpt>
      <trkpt lat="46.03822" lon="6.24445">
        <ele>786.98</ele>
        <time>2020-04-01T15:37:47Z</time>
      </trkpt>
      <trkpt lat="46.03773" lon="6.24244">
        <ele>777.84</ele>
        <time>2020-04-01T15:37:53Z</time>
      </trkpt>
      <trkpt lat="46.03763" lon="6.24215">
        <ele>774.96</ele>
        <time>2020-04-01T15:37:55Z</time>
      </trkpt>
      <trkpt lat="46.03717" lon="6.24144">
        <ele>771.6</ele>
        <time>2020-04-01T15:37:57Z</time>
      </trkpt>
      <trkpt lat="46.03701" lon="6.24123">
        <ele>770.15</ele>
        <time>2020-04-01T15:37:58Z</time>
      </trkpt>
      <trkpt lat="46.03684" lon="6.24107">
        <ele>768.71</ele>
        <time>2020-04-01T15:37:59Z</time>
      </trkpt>
      <trkpt lat="46.03667" lon="6.2409">
        <ele>767.27</ele>
        <time>2020-04-01T15:38:00Z</time>
      </trkpt>
      <trkpt lat="46.03648" lon="6.2408">
        <ele>766.31</ele>
        <time>2020-04-01T15:38:01Z</time>
      </trkpt>
      <trkpt lat="46.03629" lon="6.24074">
        <ele>764.87</ele>
        <time>2020-04-01T15:38:02Z</time>
      </trkpt>
      <trkpt lat="46.03609" lon="6.24072">
        <ele>764.39</ele>
        <time>2020-04-01T15:38:03Z</time>
      </trkpt>
      <trkpt lat="46.03589" lon="6.24072">
        <ele>763.42</ele>
        <time>2020-04-01T15:38:04Z</time>
      </trkpt>
      <trkpt lat="46.0357" lon="6.24078">
        <ele>762.94</ele>
        <time>2020-04-01T15:38:05Z</time>
      </trkpt>
      <trkpt lat="46.03552" lon="6.24086">
        <ele>762.94</ele>
        <time>2020-04-01T15:38:06Z</time>
      </trkpt>
      <trkpt lat="46.03536" lon="6.24099">
        <ele>762.46</ele>
        <time>2020-04-01T15:38:07Z</time>
      </trkpt>
      <trkpt lat="46.03523" lon="6.24115">
        <ele>761.98</ele>
        <time>2020-04-01T15:38:08Z</time>
      </trkpt>
      <trkpt lat="46.03512" lon="6.24133">
        <ele>761.5</ele>
        <time>2020-04-01T15:38:09Z</time>
      </trkpt>
      <trkpt lat="46.035" lon="6.24153">
        <ele>761.02</ele>
        <time>2020-04-01T15:38:10Z</time>
      </trkpt>
      <trkpt lat="46.03489" lon="6.24172">
        <ele>760.06</ele>
        <time>2020-04-01T15:38:11Z</time>
      </trkpt>
      <trkpt lat="46.03455" lon="6.24225">
        <ele>757.18</ele>
        <time>2020-04-01T15:38:14Z</time>
      </trkpt>
      <trkpt lat="46.03442" lon="6.2424">
        <ele>755.25</ele>
        <time>2020-04-01T15:38:16Z</time>
      </trkpt>
      <trkpt lat="46.0341" lon="6.24257">
        <ele>754.29</ele>
        <time>2020-04-01T15:38:17Z</time>
      </trkpt>
      <trkpt lat="46.03394" lon="6.24262">
        <ele>753.33</ele>
        <time>2020-04-01T15:38:18Z</time>
      </trkpt>
      <trkpt lat="46.03376" lon="6.24261">
        <ele>752.85</ele>
        <time>2020-04-01T15:38:19Z</time>
      </trkpt>
      <trkpt lat="46.03359" lon="6.24257">
        <ele>752.37</ele>
        <time>2020-04-01T15:38:20Z</time>
      </trkpt>
      <trkpt lat="46.03343" lon="6.24247">
        <ele>751.41</ele>
        <time>2020-04-01T15:38:21Z</time>
      </trkpt>
      <trkpt lat="46.03327" lon="6.24234">
        <ele>750.93</ele>
        <time>2020-04-01T15:38:22Z</time>
      </trkpt>
      <trkpt lat="46.03309" lon="6.2422">
        <ele>749.97</ele>
        <time>2020-04-01T15:38:23Z</time>
      </trkpt>
      <trkpt lat="46.03293" lon="6.24202">
        <ele>749.49</ele>
        <time>2020-04-01T15:38:24Z</time>
      </trkpt>
      <trkpt lat="46.03278" lon="6.24178">
        <ele>749</ele>
        <time>2020-04-01T15:38:25Z</time>
      </trkpt>
      <trkpt lat="46.03262" lon="6.24153">
        <ele>748.52</ele>
        <time>2020-04-01T15:38:26Z</time>
      </trkpt>
      <trkpt lat="46.03114" lon="6.23974">
        <ele>747.08</ele>
        <time>2020-04-01T15:38:34Z</time>
      </trkpt>
      <trkpt lat="46.0301" lon="6.23875">
        <ele>745.16</ele>
        <time>2020-04-01T15:38:39Z</time>
      </trkpt>
      <trkpt lat="46.02819" lon="6.2379">
        <ele>741.79</ele>
        <time>2020-04-01T15:38:47Z</time>
      </trkpt>
      <trkpt lat="46.02609" lon="6.23752">
        <ele>733.62</ele>
        <time>2020-04-01T15:38:56Z</time>
      </trkpt>
      <trkpt lat="46.02562" lon="6.23729">
        <ele>730.74</ele>
        <time>2020-04-01T15:38:58Z</time>
      </trkpt>
      <trkpt lat="46.0254" lon="6.23712">
        <ele>729.3</ele>
        <time>2020-04-01T15:38:59Z</time>
      </trkpt>
      <trkpt lat="46.02519" lon="6.2369">
        <ele>728.34</ele>
        <time>2020-04-01T15:39:00Z</time>
      </trkpt>
      <trkpt lat="46.02501" lon="6.23664">
        <ele>727.37</ele>
        <time>2020-04-01T15:39:01Z</time>
      </trkpt>
      <trkpt lat="46.02484" lon="6.23636">
        <ele>726.41</ele>
        <time>2020-04-01T15:39:02Z</time>
      </trkpt>
      <trkpt lat="46.02468" lon="6.23609">
        <ele>725.45</ele>
        <time>2020-04-01T15:39:03Z</time>
      </trkpt>
      <trkpt lat="46.02455" lon="6.2358">
        <ele>724.49</ele>
        <time>2020-04-01T15:39:04Z</time>
      </trkpt>
      <trkpt lat="46.02442" lon="6.23553">
        <ele>723.53</ele>
        <time>2020-04-01T15:39:05Z</time>
      </trkpt>
      <trkpt lat="46.02404" lon="6.2348">
        <ele>720.65</ele>
        <time>2020-04-01T15:39:08Z</time>
      </trkpt>
      <trkpt lat="46.02387" lon="6.23465">
        <ele>719.68</ele>
        <time>2020-04-01T15:39:09Z</time>
      </trkpt>
      <trkpt lat="46.02371" lon="6.2345">
        <ele>718.24</ele>
        <time>2020-04-01T15:39:10Z</time>
      </trkpt>
      <trkpt lat="46.02294" lon="6.2338">
        <ele>712.95</ele>
        <time>2020-04-01T15:39:15Z</time>
      </trkpt>
      <trkpt lat="46.02281" lon="6.23361">
        <ele>711.51</ele>
        <time>2020-04-01T15:39:16Z</time>
      </trkpt>
      <trkpt lat="46.02268" lon="6.23341">
        <ele>710.07</ele>
        <time>2020-04-01T15:39:17Z</time>
      </trkpt>
      <trkpt lat="46.02165" lon="6.23131">
        <ele>704.3</ele>
        <time>2020-04-01T15:39:26Z</time>
      </trkpt>
      <trkpt lat="46.02136" lon="6.23085">
        <ele>703.82</ele>
        <time>2020-04-01T15:39:28Z</time>
      </trkpt>
      <trkpt lat="46.02119" lon="6.23062">
        <ele>703.34</ele>
        <time>2020-04-01T15:39:29Z</time>
      </trkpt>
      <trkpt lat="46.02083" lon="6.23017">
        <ele>702.38</ele>
        <time>2020-04-01T15:39:31Z</time>
      </trkpt>
      <trkpt lat="46.02068" lon="6.22989">
        <ele>701.9</ele>
        <time>2020-04-01T15:39:32Z</time>
      </trkpt>
      <trkpt lat="46.02056" lon="6.22956">
        <ele>701.9</ele>
        <time>2020-04-01T15:39:33Z</time>
      </trkpt>
      <trkpt lat="46.02045" lon="6.22922">
        <ele>701.42</ele>
        <time>2020-04-01T15:39:34Z</time>
      </trkpt>
      <trkpt lat="46.02039" lon="6.22886">
        <ele>700.94</ele>
        <time>2020-04-01T15:39:35Z</time>
      </trkpt>
      <trkpt lat="46.02033" lon="6.22849">
        <ele>700.46</ele>
        <time>2020-04-01T15:39:36Z</time>
      </trkpt>
      <trkpt lat="46.02027" lon="6.22812">
        <ele>699.5</ele>
        <time>2020-04-01T15:39:37Z</time>
      </trkpt>
      <trkpt lat="46.01959" lon="6.22347">
        <ele>692.29</ele>
        <time>2020-04-01T15:39:49Z</time>
      </trkpt>
      <trkpt lat="46.01891" lon="6.22002">
        <ele>685.56</ele>
        <time>2020-04-01T15:39:58Z</time>
      </trkpt>
      <trkpt lat="46.0179" lon="6.21725">
        <ele>683.15</ele>
        <time>2020-04-01T15:40:06Z</time>
      </trkpt>
      <trkpt lat="46.01724" lon="6.21565">
        <ele>682.19</ele>
        <time>2020-04-01T15:40:12Z</time>
      </trkpt>
      <trkpt lat="46.01694" lon="6.21508">
        <ele>681.71</ele>
        <time>2020-04-01T15:40:13Z</time>
      </trkpt>
      <trkpt lat="46.01676" lon="6.21484">
        <ele>681.23</ele>
        <time>2020-04-01T15:40:14Z</time>
      </trkpt>
      <trkpt lat="46.01657" lon="6.21462">
        <ele>680.75</ele>
        <time>2020-04-01T15:40:15Z</time>
      </trkpt>
      <trkpt lat="46.01471" lon="6.21277">
        <ele>677.39</ele>
        <time>2020-04-01T15:40:24Z</time>
      </trkpt>
      <trkpt lat="46.01414" lon="6.21213">
        <ele>675.46</ele>
        <time>2020-04-01T15:40:27Z</time>
      </trkpt>
      <trkpt lat="46.01399" lon="6.21186">
        <ele>674.98</ele>
        <time>2020-04-01T15:40:28Z</time>
      </trkpt>
      <trkpt lat="46.01279" lon="6.21014">
        <ele>669.7</ele>
        <time>2020-04-01T15:40:35Z</time>
      </trkpt>
      <trkpt lat="46.01191" lon="6.20906">
        <ele>667.29</ele>
        <time>2020-04-01T15:40:40Z</time>
      </trkpt>
      <trkpt lat="46.01051" lon="6.2074">
        <ele>662.01</ele>
        <time>2020-04-01T15:40:49Z</time>
      </trkpt>
      <trkpt lat="46.00892" lon="6.20546">
        <ele>660.56</ele>
        <time>2020-04-01T15:40:59Z</time>
      </trkpt>
      <trkpt lat="46.00879" lon="6.20523">
        <ele>660.08</ele>
        <time>2020-04-01T15:41:00Z</time>
      </trkpt>
      <trkpt lat="46.0087" lon="6.20498">
        <ele>659.6</ele>
        <time>2020-04-01T15:41:01Z</time>
      </trkpt>
      <trkpt lat="46.00861" lon="6.20474">
        <ele>659.6</ele>
        <time>2020-04-01T15:41:02Z</time>
      </trkpt>
      <trkpt lat="46.00853" lon="6.20449">
        <ele>659.6</ele>
        <time>2020-04-01T15:41:03Z</time>
      </trkpt>
      <trkpt lat="46.00847" lon="6.20424">
        <ele>659.12</ele>
        <time>2020-04-01T15:41:04Z</time>
      </trkpt>
      <trkpt lat="46.0078" lon="6.20183">
        <ele>653.35</ele>
        <time>2020-04-01T15:41:13Z</time>
      </trkpt>
      <trkpt lat="46.00707" lon="6.19844">
        <ele>638.45</ele>
        <time>2020-04-01T15:41:25Z</time>
      </trkpt>
      <trkpt lat="46.00646" lon="6.19658">
        <ele>630.28</ele>
        <time>2020-04-01T15:41:32Z</time>
      </trkpt>
      <trkpt lat="46.006" lon="6.1955">
        <ele>625.47</ele>
        <time>2020-04-01T15:41:37Z</time>
      </trkpt>
      <trkpt lat="46.00587" lon="6.19533">
        <ele>624.51</ele>
        <time>2020-04-01T15:41:38Z</time>
      </trkpt>
      <trkpt lat="46.00573" lon="6.19516">
        <ele>623.55</ele>
        <time>2020-04-01T15:41:39Z</time>
      </trkpt>
      <trkpt lat="46.00529" lon="6.19476">
        <ele>620.19</ele>
        <time>2020-04-01T15:41:42Z</time>
      </trkpt>
      <trkpt lat="46.00518" lon="6.1946">
        <ele>618.75</ele>
        <time>2020-04-01T15:41:43Z</time>
      </trkpt>
      <trkpt lat="46.00486" lon="6.19398">
        <ele>615.38</ele>
        <time>2020-04-01T15:41:47Z</time>
      </trkpt>
      <trkpt lat="46.0048" lon="6.19382">
        <ele>614.42</ele>
        <time>2020-04-01T15:41:48Z</time>
      </trkpt>
      <trkpt lat="46.0048" lon="6.19365">
        <ele>613.94</ele>
        <time>2020-04-01T15:41:49Z</time>
      </trkpt>
      <trkpt lat="46.00484" lon="6.19347">
        <ele>612.98</ele>
        <time>2020-04-01T15:41:50Z</time>
      </trkpt>
      <trkpt lat="46.00491" lon="6.19332">
        <ele>612.02</ele>
        <time>2020-04-01T15:41:51Z</time>
      </trkpt>
      <trkpt lat="46.005" lon="6.19318">
        <ele>609.61</ele>
        <time>2020-04-01T15:41:53Z</time>
      </trkpt>
      <trkpt lat="46.00512" lon="6.19311">
        <ele>608.65</ele>
        <time>2020-04-01T15:41:54Z</time>
      </trkpt>
      <trkpt lat="46.00539" lon="6.19314">
        <ele>606.73</ele>
        <time>2020-04-01T15:41:55Z</time>
      </trkpt>
      <trkpt lat="46.00551" lon="6.19322">
        <ele>605.29</ele>
        <time>2020-04-01T15:41:56Z</time>
      </trkpt>
      <trkpt lat="46.00562" lon="6.19332">
        <ele>604.33</ele>
        <time>2020-04-01T15:41:57Z</time>
      </trkpt>
      <trkpt lat="46.00571" lon="6.19344">
        <ele>603.36</ele>
        <time>2020-04-01T15:41:58Z</time>
      </trkpt>
      <trkpt lat="46.0058" lon="6.19356">
        <ele>602.4</ele>
        <time>2020-04-01T15:41:59Z</time>
      </trkpt>
      <trkpt lat="46.00644" lon="6.19484">
        <ele>598.56</ele>
        <time>2020-04-01T15:42:07Z</time>
      </trkpt>
      <trkpt lat="46.0065" lon="6.19499">
        <ele>598.08</ele>
        <time>2020-04-01T15:42:08Z</time>
      </trkpt>
      <trkpt lat="46.00657" lon="6.19512">
        <ele>597.6</ele>
        <time>2020-04-01T15:42:09Z</time>
      </trkpt>
      <trkpt lat="46.00662" lon="6.19524">
        <ele>597.12</ele>
        <time>2020-04-01T15:42:10Z</time>
      </trkpt>
      <trkpt lat="46.00667" lon="6.19535">
        <ele>597.12</ele>
        <time>2020-04-01T15:42:11Z</time>
      </trkpt>
      <trkpt lat="46.00676" lon="6.19538">
        <ele>597.12</ele>
        <time>2020-04-01T15:42:12Z</time>
      </trkpt>
      <trkpt lat="46.00684" lon="6.1954">
        <ele>596.64</ele>
        <time>2020-04-01T15:42:13Z</time>
      </trkpt>
      <trkpt lat="46.00691" lon="6.19533">
        <ele>596.64</ele>
        <time>2020-04-01T15:42:14Z</time>
      </trkpt>
      <trkpt lat="46.00693" lon="6.19522">
        <ele>597.12</ele>
        <time>2020-04-01T15:42:15Z</time>
      </trkpt>
      <trkpt lat="46.00694" lon="6.19511">
        <ele>597.12</ele>
        <time>2020-04-01T15:42:16Z</time>
      </trkpt>
      <trkpt lat="46.00691" lon="6.19497">
        <ele>597.12</ele>
        <time>2020-04-01T15:42:17Z</time>
      </trkpt>
      <trkpt lat="46.00685" lon="6.19481">
        <ele>596.15</ele>
        <time>2020-04-01T15:42:18Z</time>
      </trkpt>
      <trkpt lat="46.00678" lon="6.19462">
        <ele>595.67</ele>
        <time>2020-04-01T15:42:19Z</time>
      </trkpt>
      <trkpt lat="46.00669" lon="6.19441">
        <ele>594.71</ele>
        <time>2020-04-01T15:42:20Z</time>
      </trkpt>
      <trkpt lat="46.00593" lon="6.19223">
        <ele>584.14</ele>
        <time>2020-04-01T15:42:29Z</time>
      </trkpt>
      <trkpt lat="46.00493" lon="6.18988">
        <ele>569.72</ele>
        <time>2020-04-01T15:42:38Z</time>
      </trkpt>
      <trkpt lat="46.00468" lon="6.18952">
        <ele>566.83</ele>
        <time>2020-04-01T15:42:40Z</time>
      </trkpt>
      <trkpt lat="46.00456" lon="6.18936">
        <ele>565.39</ele>
        <time>2020-04-01T15:42:41Z</time>
      </trkpt>
      <trkpt lat="46.00444" lon="6.1892">
        <ele>564.43</ele>
        <time>2020-04-01T15:42:42Z</time>
      </trkpt>
      <trkpt lat="46.00411" lon="6.18886">
        <ele>562.03</ele>
        <time>2020-04-01T15:42:45Z</time>
      </trkpt>
      <trkpt lat="46.00402" lon="6.18877">
        <ele>561.07</ele>
        <time>2020-04-01T15:42:46Z</time>
      </trkpt>
      <trkpt lat="46.00404" lon="6.18857">
        <ele>560.11</ele>
        <time>2020-04-01T15:42:47Z</time>
      </trkpt>
      <trkpt lat="46.00401" lon="6.18848">
        <ele>559.62</ele>
        <time>2020-04-01T15:42:48Z</time>
      </trkpt>
      <trkpt lat="46.00403" lon="6.18838">
        <ele>559.14</ele>
        <time>2020-04-01T15:42:49Z</time>
      </trkpt>
      <trkpt lat="46.00407" lon="6.18829">
        <ele>558.66</ele>
        <time>2020-04-01T15:42:50Z</time>
      </trkpt>
      <trkpt lat="46.00416" lon="6.18822">
        <ele>558.18</ele>
        <time>2020-04-01T15:42:51Z</time>
      </trkpt>
      <trkpt lat="46.00423" lon="6.18819">
        <ele>557.7</ele>
        <time>2020-04-01T15:42:52Z</time>
      </trkpt>
      <trkpt lat="46.00433" lon="6.18823">
        <ele>556.74</ele>
        <time>2020-04-01T15:42:53Z</time>
      </trkpt>
      <trkpt lat="46.0044" lon="6.18834">
        <ele>556.26</ele>
        <time>2020-04-01T15:42:54Z</time>
      </trkpt>
      <trkpt lat="46.00444" lon="6.18847">
        <ele>555.78</ele>
        <time>2020-04-01T15:42:55Z</time>
      </trkpt>
      <trkpt lat="46.00448" lon="6.18858">
        <ele>555.78</ele>
        <time>2020-04-01T15:42:56Z</time>
      </trkpt>
      <trkpt lat="46.00452" lon="6.18867">
        <ele>555.3</ele>
        <time>2020-04-01T15:42:57Z</time>
      </trkpt>
      <trkpt lat="46.00445" lon="6.18891">
        <ele>555.3</ele>
        <time>2020-04-01T15:42:58Z</time>
      </trkpt>
      <trkpt lat="46.00437" lon="6.189">
        <ele>554.82</ele>
        <time>2020-04-01T15:42:59Z</time>
      </trkpt>
      <trkpt lat="46.00427" lon="6.18913">
        <ele>554.34</ele>
        <time>2020-04-01T15:43:00Z</time>
      </trkpt>
      <trkpt lat="46.00407" lon="6.18945">
        <ele>552.9</ele>
        <time>2020-04-01T15:43:02Z</time>
      </trkpt>
      <trkpt lat="46.00398" lon="6.18967">
        <ele>552.9</ele>
        <time>2020-04-01T15:43:03Z</time>
      </trkpt>
      <trkpt lat="46.00393" lon="6.18992">
        <ele>553.38</ele>
        <time>2020-04-01T15:43:04Z</time>
      </trkpt>
      <trkpt lat="46.00353" lon="6.19181">
        <ele>558.66</ele>
        <time>2020-04-01T15:43:10Z</time>
      </trkpt>
      <trkpt lat="46.00291" lon="6.19517">
        <ele>562.51</ele>
        <time>2020-04-01T15:43:20Z</time>
      </trkpt>
      <trkpt lat="46.0028" lon="6.19777">
        <ele>564.43</ele>
        <time>2020-04-01T15:43:28Z</time>
      </trkpt>
      <trkpt lat="46.00274" lon="6.19805">
        <ele>564.91</ele>
        <time>2020-04-01T15:43:29Z</time>
      </trkpt>
      <trkpt lat="46.00265" lon="6.19831">
        <ele>564.91</ele>
        <time>2020-04-01T15:43:30Z</time>
      </trkpt>
      <trkpt lat="46.00209" lon="6.19981">
        <ele>566.83</ele>
        <time>2020-04-01T15:43:37Z</time>
      </trkpt>
      <trkpt lat="46.00195" lon="6.20018">
        <ele>567.32</ele>
        <time>2020-04-01T15:43:41Z</time>
      </trkpt>
      <trkpt lat="46.00193" lon="6.20021">
        <ele>567.32</ele>
        <time>2020-04-01T15:43:42Z</time>
      </trkpt>
      <trkpt lat="46.00185" lon="6.20001">
        <ele>567.32</ele>
        <time>2020-04-01T15:43:47Z</time>
      </trkpt>
      <trkpt lat="46.00184" lon="6.19998">
        <ele>565.87</ele>
        <time>2020-04-01T15:43:56Z</time>
      </trkpt>
      <trkpt lat="46.00182" lon="6.19998">
        <ele>566.83</ele>
        <time>2020-04-01T15:44:10Z</time>
      </trkpt>
      <trkpt lat="46.00183" lon="6.19996">
        <ele>567.32</ele>
        <time>2020-04-01T15:44:28Z</time>
      </trkpt>
      <trkpt lat="46.00182" lon="6.19996">
        <ele>567.32</ele>
        <time>2020-04-01T15:45:28Z</time>
      </trkpt>
      <trkpt lat="46.00182" lon="6.19996">
        <ele>567.32</ele>
        <time>2020-04-01T15:45:43Z</time>
      </trkpt>
      <trkpt lat="46.00166" lon="6.20013">
        <ele>574.53</ele>
        <time>2020-04-01T16:45:44Z</time>
      </trkpt>
      <trkpt lat="46.00166" lon="6.20012">
        <ele>577.41</ele>
        <time>2020-04-01T16:45:46Z</time>
      </trkpt>
      <trkpt lat="46.00191" lon="6.20028">
        <ele>580.77</ele>
        <time>2020-04-01T16:45:48Z</time>
      </trkpt>
      <trkpt lat="46.0019" lon="6.20031">
        <ele>574.53</ele>
        <time>2020-04-01T16:45:52Z</time>
      </trkpt>
      <trkpt lat="46.00192" lon="6.20026">
        <ele>573.08</ele>
        <time>2020-04-01T16:45:58Z</time>
      </trkpt>
      <trkpt lat="46.00194" lon="6.2002">
        <ele>573.08</ele>
        <time>2020-04-01T16:45:59Z</time>
      </trkpt>
      <trkpt lat="46.00197" lon="6.20011">
        <ele>572.6</ele>
        <time>2020-04-01T16:46:00Z</time>
      </trkpt>
      <trkpt lat="46.00209" lon="6.1998">
        <ele>573.08</ele>
        <time>2020-04-01T16:46:02Z</time>
      </trkpt>
      <trkpt lat="46.00218" lon="6.19956">
        <ele>573.56</ele>
        <time>2020-04-01T16:46:03Z</time>
      </trkpt>
      <trkpt lat="46.00231" lon="6.19924">
        <ele>573.08</ele>
        <time>2020-04-01T16:46:04Z</time>
      </trkpt>
      <trkpt lat="46.00278" lon="6.19794">
        <ele>571.64</ele>
        <time>2020-04-01T16:46:08Z</time>
      </trkpt>
      <trkpt lat="46.00282" lon="6.1976">
        <ele>571.64</ele>
        <time>2020-04-01T16:46:09Z</time>
      </trkpt>
      <trkpt lat="46.00285" lon="6.19729">
        <ele>571.64</ele>
        <time>2020-04-01T16:46:10Z</time>
      </trkpt>
      <trkpt lat="46.00288" lon="6.19595">
        <ele>571.16</ele>
        <time>2020-04-01T16:46:14Z</time>
      </trkpt>
      <trkpt lat="46.00294" lon="6.19488">
        <ele>570.68</ele>
        <time>2020-04-01T16:46:17Z</time>
      </trkpt>
      <trkpt lat="46.00312" lon="6.19385">
        <ele>570.68</ele>
        <time>2020-04-01T16:46:20Z</time>
      </trkpt>
      <trkpt lat="46.0037" lon="6.19094">
        <ele>571.64</ele>
        <time>2020-04-01T16:46:29Z</time>
      </trkpt>
      <trkpt lat="46.00391" lon="6.18998">
        <ele>569.24</ele>
        <time>2020-04-01T16:46:34Z</time>
      </trkpt>
      <trkpt lat="46.00394" lon="6.18986">
        <ele>567.8</ele>
        <time>2020-04-01T16:46:35Z</time>
      </trkpt>
      <trkpt lat="46.00396" lon="6.18976">
        <ele>566.83</ele>
        <time>2020-04-01T16:46:36Z</time>
      </trkpt>
      <trkpt lat="46.00398" lon="6.18967">
        <ele>566.35</ele>
        <time>2020-04-01T16:46:37Z</time>
      </trkpt>
      <trkpt lat="46.00399" lon="6.18961">
        <ele>565.39</ele>
        <time>2020-04-01T16:46:38Z</time>
      </trkpt>
      <trkpt lat="46.00395" lon="6.18952">
        <ele>564.91</ele>
        <time>2020-04-01T16:46:39Z</time>
      </trkpt>
      <trkpt lat="46.0039" lon="6.18949">
        <ele>563.95</ele>
        <time>2020-04-01T16:46:40Z</time>
      </trkpt>
      <trkpt lat="46.00384" lon="6.18945">
        <ele>563.47</ele>
        <time>2020-04-01T16:46:41Z</time>
      </trkpt>
      <trkpt lat="46.00379" lon="6.18942">
        <ele>562.51</ele>
        <time>2020-04-01T16:46:42Z</time>
      </trkpt>
      <trkpt lat="46.00371" lon="6.18934">
        <ele>562.03</ele>
        <time>2020-04-01T16:46:43Z</time>
      </trkpt>
      <trkpt lat="46.00364" lon="6.18928">
        <ele>562.03</ele>
        <time>2020-04-01T16:46:44Z</time>
      </trkpt>
      <trkpt lat="46.0036" lon="6.18918">
        <ele>561.55</ele>
        <time>2020-04-01T16:46:45Z</time>
      </trkpt>
      <trkpt lat="46.00358" lon="6.18908">
        <ele>561.55</ele>
        <time>2020-04-01T16:46:46Z</time>
      </trkpt>
      <trkpt lat="46.0036" lon="6.18897">
        <ele>561.55</ele>
        <time>2020-04-01T16:46:47Z</time>
      </trkpt>
      <trkpt lat="46.00362" lon="6.18887">
        <ele>561.55</ele>
        <time>2020-04-01T16:46:48Z</time>
      </trkpt>
      <trkpt lat="46.00369" lon="6.18883">
        <ele>561.55</ele>
        <time>2020-04-01T16:46:49Z</time>
      </trkpt>
      <trkpt lat="46.00377" lon="6.18878">
        <ele>561.55</ele>
        <time>2020-04-01T16:46:50Z</time>
      </trkpt>
      <trkpt lat="46.00384" lon="6.18877">
        <ele>561.55</ele>
        <time>2020-04-01T16:46:51Z</time>
      </trkpt>
      <trkpt lat="46.00394" lon="6.18882">
        <ele>562.51</ele>
        <time>2020-04-01T16:46:53Z</time>
      </trkpt>
      <trkpt lat="46.00421" lon="6.18896">
        <ele>563.95</ele>
        <time>2020-04-01T16:46:55Z</time>
      </trkpt>
      <trkpt lat="46.00491" lon="6.18984">
        <ele>567.8</ele>
        <time>2020-04-01T16:46:58Z</time>
      </trkpt>
      <trkpt lat="46.00591" lon="6.19219">
        <ele>580.29</ele>
        <time>2020-04-01T16:47:05Z</time>
      </trkpt>
      <trkpt lat="46.0065" lon="6.19389">
        <ele>591.83</ele>
        <time>2020-04-01T16:47:11Z</time>
      </trkpt>
      <trkpt lat="46.00686" lon="6.19483">
        <ele>598.56</ele>
        <time>2020-04-01T16:47:16Z</time>
      </trkpt>
      <trkpt lat="46.00691" lon="6.19495">
        <ele>600</ele>
        <time>2020-04-01T16:47:17Z</time>
      </trkpt>
      <trkpt lat="46.00694" lon="6.19509">
        <ele>600.48</ele>
        <time>2020-04-01T16:47:18Z</time>
      </trkpt>
      <trkpt lat="46.00693" lon="6.19519">
        <ele>600.96</ele>
        <time>2020-04-01T16:47:19Z</time>
      </trkpt>
      <trkpt lat="46.00691" lon="6.19532">
        <ele>601.92</ele>
        <time>2020-04-01T16:47:20Z</time>
      </trkpt>
      <trkpt lat="46.00682" lon="6.19541">
        <ele>602.88</ele>
        <time>2020-04-01T16:47:21Z</time>
      </trkpt>
      <trkpt lat="46.00671" lon="6.19536">
        <ele>604.33</ele>
        <time>2020-04-01T16:47:22Z</time>
      </trkpt>
      <trkpt lat="46.00661" lon="6.19522">
        <ele>605.77</ele>
        <time>2020-04-01T16:47:23Z</time>
      </trkpt>
      <trkpt lat="46.00655" lon="6.19508">
        <ele>606.73</ele>
        <time>2020-04-01T16:47:24Z</time>
      </trkpt>
      <trkpt lat="46.00647" lon="6.1949">
        <ele>607.69</ele>
        <time>2020-04-01T16:47:25Z</time>
      </trkpt>
      <trkpt lat="46.00587" lon="6.19366">
        <ele>613.46</ele>
        <time>2020-04-01T16:47:31Z</time>
      </trkpt>
      <trkpt lat="46.00552" lon="6.19323">
        <ele>616.82</ele>
        <time>2020-04-01T16:47:34Z</time>
      </trkpt>
      <trkpt lat="46.0054" lon="6.19314">
        <ele>618.26</ele>
        <time>2020-04-01T16:47:35Z</time>
      </trkpt>
      <trkpt lat="46.0053" lon="6.19309">
        <ele>618.75</ele>
        <time>2020-04-01T16:47:36Z</time>
      </trkpt>
      <trkpt lat="46.00519" lon="6.19307">
        <ele>619.23</ele>
        <time>2020-04-01T16:47:37Z</time>
      </trkpt>
      <trkpt lat="46.00508" lon="6.19313">
        <ele>619.23</ele>
        <time>2020-04-01T16:47:38Z</time>
      </trkpt>
      <trkpt lat="46.00497" lon="6.1932">
        <ele>619.71</ele>
        <time>2020-04-01T16:47:39Z</time>
      </trkpt>
      <trkpt lat="46.00491" lon="6.19333">
        <ele>619.71</ele>
        <time>2020-04-01T16:47:40Z</time>
      </trkpt>
      <trkpt lat="46.00484" lon="6.19348">
        <ele>620.19</ele>
        <time>2020-04-01T16:47:41Z</time>
      </trkpt>
      <trkpt lat="46.0048" lon="6.19364">
        <ele>620.19</ele>
        <time>2020-04-01T16:47:42Z</time>
      </trkpt>
      <trkpt lat="46.0048" lon="6.19382">
        <ele>620.67</ele>
        <time>2020-04-01T16:47:43Z</time>
      </trkpt>
      <trkpt lat="46.00486" lon="6.19399">
        <ele>620.67</ele>
        <time>2020-04-01T16:47:44Z</time>
      </trkpt>
      <trkpt lat="46.00493" lon="6.19417">
        <ele>620.67</ele>
        <time>2020-04-01T16:47:45Z</time>
      </trkpt>
      <trkpt lat="46.00502" lon="6.19434">
        <ele>621.15</ele>
        <time>2020-04-01T16:47:46Z</time>
      </trkpt>
      <trkpt lat="46.00513" lon="6.19452">
        <ele>622.11</ele>
        <time>2020-04-01T16:47:47Z</time>
      </trkpt>
      <trkpt lat="46.00525" lon="6.19472">
        <ele>623.07</ele>
        <time>2020-04-01T16:47:48Z</time>
      </trkpt>
      <trkpt lat="46.00538" lon="6.19484">
        <ele>624.03</ele>
        <time>2020-04-01T16:47:49Z</time>
      </trkpt>
      <trkpt lat="46.00553" lon="6.19498">
        <ele>624.99</ele>
        <time>2020-04-01T16:47:50Z</time>
      </trkpt>
      <trkpt lat="46.00569" lon="6.19512">
        <ele>625.96</ele>
        <time>2020-04-01T16:47:51Z</time>
      </trkpt>
      <trkpt lat="46.00584" lon="6.19529">
        <ele>626.92</ele>
        <time>2020-04-01T16:47:52Z</time>
      </trkpt>
      <trkpt lat="46.00598" lon="6.19547">
        <ele>627.88</ele>
        <time>2020-04-01T16:47:53Z</time>
      </trkpt>
      <trkpt lat="46.00611" lon="6.19568">
        <ele>628.84</ele>
        <time>2020-04-01T16:47:54Z</time>
      </trkpt>
      <trkpt lat="46.0062" lon="6.19592">
        <ele>629.8</ele>
        <time>2020-04-01T16:47:55Z</time>
      </trkpt>
      <trkpt lat="46.0063" lon="6.19617">
        <ele>630.76</ele>
        <time>2020-04-01T16:47:56Z</time>
      </trkpt>
      <trkpt lat="46.00702" lon="6.19822">
        <ele>638.45</ele>
        <time>2020-04-01T16:48:04Z</time>
      </trkpt>
      <trkpt lat="46.00767" lon="6.20126">
        <ele>650.47</ele>
        <time>2020-04-01T16:48:15Z</time>
      </trkpt>
      <trkpt lat="46.00858" lon="6.20466">
        <ele>662.01</ele>
        <time>2020-04-01T16:48:28Z</time>
      </trkpt>
      <trkpt lat="46.00867" lon="6.20491">
        <ele>662.49</ele>
        <time>2020-04-01T16:48:29Z</time>
      </trkpt>
      <trkpt lat="46.00876" lon="6.20514">
        <ele>662.97</ele>
        <time>2020-04-01T16:48:30Z</time>
      </trkpt>
      <trkpt lat="46.00886" lon="6.20536">
        <ele>662.97</ele>
        <time>2020-04-01T16:48:31Z</time>
      </trkpt>
      <trkpt lat="46.00899" lon="6.20556">
        <ele>662.97</ele>
        <time>2020-04-01T16:48:32Z</time>
      </trkpt>
      <trkpt lat="46.00913" lon="6.20575">
        <ele>662.97</ele>
        <time>2020-04-01T16:48:33Z</time>
      </trkpt>
      <trkpt lat="46.01068" lon="6.20759">
        <ele>663.93</ele>
        <time>2020-04-01T16:48:43Z</time>
      </trkpt>
      <trkpt lat="46.01267" lon="6.21">
        <ele>669.7</ele>
        <time>2020-04-01T16:48:55Z</time>
      </trkpt>
      <trkpt lat="46.01406" lon="6.21198">
        <ele>674.5</ele>
        <time>2020-04-01T16:49:04Z</time>
      </trkpt>
      <trkpt lat="46.01437" lon="6.2124">
        <ele>675.94</ele>
        <time>2020-04-01T16:49:06Z</time>
      </trkpt>
      <trkpt lat="46.01454" lon="6.21258">
        <ele>676.42</ele>
        <time>2020-04-01T16:49:07Z</time>
      </trkpt>
      <trkpt lat="46.01612" lon="6.21416">
        <ele>680.75</ele>
        <time>2020-04-01T16:49:16Z</time>
      </trkpt>
      <trkpt lat="46.01729" lon="6.21577">
        <ele>684.6</ele>
        <time>2020-04-01T16:49:24Z</time>
      </trkpt>
      <trkpt lat="46.0185" lon="6.21877">
        <ele>687</ele>
        <time>2020-04-01T16:49:35Z</time>
      </trkpt>
      <trkpt lat="46.01927" lon="6.22145">
        <ele>689.4</ele>
        <time>2020-04-01T16:49:44Z</time>
      </trkpt>
      <trkpt lat="46.0197" lon="6.2242">
        <ele>692.29</ele>
        <time>2020-04-01T16:49:53Z</time>
      </trkpt>
      <trkpt lat="46.02022" lon="6.22776">
        <ele>700.46</ele>
        <time>2020-04-01T16:50:05Z</time>
      </trkpt>
      <trkpt lat="46.02044" lon="6.22917">
        <ele>702.38</ele>
        <time>2020-04-01T16:50:10Z</time>
      </trkpt>
      <trkpt lat="46.02052" lon="6.22943">
        <ele>702.86</ele>
        <time>2020-04-01T16:50:11Z</time>
      </trkpt>
      <trkpt lat="46.02061" lon="6.2297">
        <ele>703.34</ele>
        <time>2020-04-01T16:50:12Z</time>
      </trkpt>
      <trkpt lat="46.02071" lon="6.22994">
        <ele>703.82</ele>
        <time>2020-04-01T16:50:13Z</time>
      </trkpt>
      <trkpt lat="46.02083" lon="6.23016">
        <ele>704.3</ele>
        <time>2020-04-01T16:50:14Z</time>
      </trkpt>
      <trkpt lat="46.02097" lon="6.23035">
        <ele>704.78</ele>
        <time>2020-04-01T16:50:15Z</time>
      </trkpt>
      <trkpt lat="46.02112" lon="6.23053">
        <ele>705.75</ele>
        <time>2020-04-01T16:50:16Z</time>
      </trkpt>
      <trkpt lat="46.02126" lon="6.23071">
        <ele>705.75</ele>
        <time>2020-04-01T16:50:17Z</time>
      </trkpt>
      <trkpt lat="46.02152" lon="6.23108">
        <ele>706.23</ele>
        <time>2020-04-01T16:50:19Z</time>
      </trkpt>
      <trkpt lat="46.02226" lon="6.23252">
        <ele>708.63</ele>
        <time>2020-04-01T16:50:27Z</time>
      </trkpt>
      <trkpt lat="46.02293" lon="6.2338">
        <ele>711.99</ele>
        <time>2020-04-01T16:50:34Z</time>
      </trkpt>
      <trkpt lat="46.02307" lon="6.23392">
        <ele>712.95</ele>
        <time>2020-04-01T16:50:35Z</time>
      </trkpt>
      <trkpt lat="46.02321" lon="6.23405">
        <ele>713.44</ele>
        <time>2020-04-01T16:50:36Z</time>
      </trkpt>
      <trkpt lat="46.02397" lon="6.23474">
        <ele>717.76</ele>
        <time>2020-04-01T16:50:40Z</time>
      </trkpt>
      <trkpt lat="46.02415" lon="6.23498">
        <ele>719.2</ele>
        <time>2020-04-01T16:50:41Z</time>
      </trkpt>
      <trkpt lat="46.0243" lon="6.23525">
        <ele>720.16</ele>
        <time>2020-04-01T16:50:42Z</time>
      </trkpt>
      <trkpt lat="46.02443" lon="6.23554">
        <ele>721.61</ele>
        <time>2020-04-01T16:50:43Z</time>
      </trkpt>
      <trkpt lat="46.02456" lon="6.23584">
        <ele>722.57</ele>
        <time>2020-04-01T16:50:44Z</time>
      </trkpt>
      <trkpt lat="46.0253" lon="6.23702">
        <ele>727.37</ele>
        <time>2020-04-01T16:50:49Z</time>
      </trkpt>
      <trkpt lat="46.02548" lon="6.23719">
        <ele>727.86</ele>
        <time>2020-04-01T16:50:50Z</time>
      </trkpt>
      <trkpt lat="46.02566" lon="6.23732">
        <ele>728.82</ele>
        <time>2020-04-01T16:50:51Z</time>
      </trkpt>
      <trkpt lat="46.02586" lon="6.23741">
        <ele>729.78</ele>
        <time>2020-04-01T16:50:52Z</time>
      </trkpt>
      <trkpt lat="46.02606" lon="6.23751">
        <ele>730.74</ele>
        <time>2020-04-01T16:50:53Z</time>
      </trkpt>
      <trkpt lat="46.02627" lon="6.23756">
        <ele>731.7</ele>
        <time>2020-04-01T16:50:54Z</time>
      </trkpt>
      <trkpt lat="46.02648" lon="6.2376">
        <ele>732.18</ele>
        <time>2020-04-01T16:50:55Z</time>
      </trkpt>
      <trkpt lat="46.029" lon="6.23816">
        <ele>743.24</ele>
        <time>2020-04-01T16:51:07Z</time>
      </trkpt>
      <trkpt lat="46.0305" lon="6.23902">
        <ele>746.12</ele>
        <time>2020-04-01T16:51:15Z</time>
      </trkpt>
      <trkpt lat="46.03066" lon="6.2392">
        <ele>746.6</ele>
        <time>2020-04-01T16:51:16Z</time>
      </trkpt>
      <trkpt lat="46.03232" lon="6.24109">
        <ele>749</ele>
        <time>2020-04-01T16:51:27Z</time>
      </trkpt>
      <trkpt lat="46.03302" lon="6.24222">
        <ele>749.49</ele>
        <time>2020-04-01T16:51:34Z</time>
      </trkpt>
      <trkpt lat="46.03313" lon="6.24234">
        <ele>749.49</ele>
        <time>2020-04-01T16:51:35Z</time>
      </trkpt>
      <trkpt lat="46.03324" lon="6.24245">
        <ele>749.97</ele>
        <time>2020-04-01T16:51:36Z</time>
      </trkpt>
      <trkpt lat="46.03337" lon="6.24254">
        <ele>749.97</ele>
        <time>2020-04-01T16:51:37Z</time>
      </trkpt>
      <trkpt lat="46.03351" lon="6.24264">
        <ele>750.45</ele>
        <time>2020-04-01T16:51:38Z</time>
      </trkpt>
      <trkpt lat="46.03366" lon="6.24268">
        <ele>750.93</ele>
        <time>2020-04-01T16:51:39Z</time>
      </trkpt>
      <trkpt lat="46.03382" lon="6.24272">
        <ele>751.41</ele>
        <time>2020-04-01T16:51:40Z</time>
      </trkpt>
      <trkpt lat="46.03397" lon="6.24269">
        <ele>751.89</ele>
        <time>2020-04-01T16:51:41Z</time>
      </trkpt>
      <trkpt lat="46.03413" lon="6.24265">
        <ele>752.37</ele>
        <time>2020-04-01T16:51:42Z</time>
      </trkpt>
      <trkpt lat="46.03428" lon="6.24255">
        <ele>752.85</ele>
        <time>2020-04-01T16:51:43Z</time>
      </trkpt>
      <trkpt lat="46.03441" lon="6.24247">
        <ele>753.81</ele>
        <time>2020-04-01T16:51:44Z</time>
      </trkpt>
      <trkpt lat="46.03454" lon="6.24226">
        <ele>754.77</ele>
        <time>2020-04-01T16:51:45Z</time>
      </trkpt>
      <trkpt lat="46.03467" lon="6.24207">
        <ele>755.73</ele>
        <time>2020-04-01T16:51:46Z</time>
      </trkpt>
      <trkpt lat="46.0348" lon="6.24186">
        <ele>756.69</ele>
        <time>2020-04-01T16:51:47Z</time>
      </trkpt>
      <trkpt lat="46.03494" lon="6.24164">
        <ele>757.66</ele>
        <time>2020-04-01T16:51:48Z</time>
      </trkpt>
      <trkpt lat="46.03521" lon="6.24118">
        <ele>759.1</ele>
        <time>2020-04-01T16:51:50Z</time>
      </trkpt>
      <trkpt lat="46.03537" lon="6.24099">
        <ele>760.06</ele>
        <time>2020-04-01T16:51:51Z</time>
      </trkpt>
      <trkpt lat="46.03554" lon="6.24084">
        <ele>760.54</ele>
        <time>2020-04-01T16:51:52Z</time>
      </trkpt>
      <trkpt lat="46.03573" lon="6.24077">
        <ele>761.5</ele>
        <time>2020-04-01T16:51:53Z</time>
      </trkpt>
      <trkpt lat="46.03593" lon="6.24071">
        <ele>762.46</ele>
        <time>2020-04-01T16:51:54Z</time>
      </trkpt>
      <trkpt lat="46.03612" lon="6.24072">
        <ele>763.42</ele>
        <time>2020-04-01T16:51:55Z</time>
      </trkpt>
      <trkpt lat="46.03632" lon="6.24074">
        <ele>764.39</ele>
        <time>2020-04-01T16:51:56Z</time>
      </trkpt>
      <trkpt lat="46.03652" lon="6.24082">
        <ele>764.87</ele>
        <time>2020-04-01T16:51:57Z</time>
      </trkpt>
      <trkpt lat="46.03671" lon="6.24094">
        <ele>765.83</ele>
        <time>2020-04-01T16:51:58Z</time>
      </trkpt>
      <trkpt lat="46.03689" lon="6.24111">
        <ele>766.79</ele>
        <time>2020-04-01T16:51:59Z</time>
      </trkpt>
      <trkpt lat="46.03707" lon="6.2413">
        <ele>767.75</ele>
        <time>2020-04-01T16:52:00Z</time>
      </trkpt>
      <trkpt lat="46.03724" lon="6.24155">
        <ele>769.19</ele>
        <time>2020-04-01T16:52:01Z</time>
      </trkpt>
      <trkpt lat="46.03741" lon="6.2418">
        <ele>770.63</ele>
        <time>2020-04-01T16:52:02Z</time>
      </trkpt>
      <trkpt lat="46.03758" lon="6.24206">
        <ele>772.08</ele>
        <time>2020-04-01T16:52:03Z</time>
      </trkpt>
      <trkpt lat="46.03771" lon="6.24238">
        <ele>773.52</ele>
        <time>2020-04-01T16:52:04Z</time>
      </trkpt>
      <trkpt lat="46.03782" lon="6.24271">
        <ele>775.44</ele>
        <time>2020-04-01T16:52:05Z</time>
      </trkpt>
      <trkpt lat="46.03794" lon="6.24305">
        <ele>776.88</ele>
        <time>2020-04-01T16:52:06Z</time>
      </trkpt>
      <trkpt lat="46.03802" lon="6.24345">
        <ele>778.81</ele>
        <time>2020-04-01T16:52:07Z</time>
      </trkpt>
      <trkpt lat="46.03809" lon="6.24386">
        <ele>780.73</ele>
        <time>2020-04-01T16:52:08Z</time>
      </trkpt>
      <trkpt lat="46.03842" lon="6.24532">
        <ele>787.94</ele>
        <time>2020-04-01T16:52:12Z</time>
      </trkpt>
      <trkpt lat="46.03853" lon="6.24559">
        <ele>788.9</ele>
        <time>2020-04-01T16:52:13Z</time>
      </trkpt>
      <trkpt lat="46.03865" lon="6.24587">
        <ele>790.34</ele>
        <time>2020-04-01T16:52:14Z</time>
      </trkpt>
      <trkpt lat="46.0388" lon="6.2461">
        <ele>791.3</ele>
        <time>2020-04-01T16:52:15Z</time>
      </trkpt>
      <trkpt lat="46.03896" lon="6.24632">
        <ele>792.74</ele>
        <time>2020-04-01T16:52:16Z</time>
      </trkpt>
      <trkpt lat="46.03914" lon="6.2465">
        <ele>793.22</ele>
        <time>2020-04-01T16:52:17Z</time>
      </trkpt>
      <trkpt lat="46.03932" lon="6.24668">
        <ele>794.19</ele>
        <time>2020-04-01T16:52:18Z</time>
      </trkpt>
      <trkpt lat="46.03951" lon="6.24682">
        <ele>794.67</ele>
        <time>2020-04-01T16:52:19Z</time>
      </trkpt>
      <trkpt lat="46.03972" lon="6.24695">
        <ele>795.15</ele>
        <time>2020-04-01T16:52:20Z</time>
      </trkpt>
      <trkpt lat="46.03994" lon="6.24704">
        <ele>795.63</ele>
        <time>2020-04-01T16:52:21Z</time>
      </trkpt>
      <trkpt lat="46.04017" lon="6.24711">
        <ele>795.63</ele>
        <time>2020-04-01T16:52:22Z</time>
      </trkpt>
      <trkpt lat="46.04084" lon="6.24736">
        <ele>795.15</ele>
        <time>2020-04-01T16:52:25Z</time>
      </trkpt>
      <trkpt lat="46.04106" lon="6.24749">
        <ele>794.67</ele>
        <time>2020-04-01T16:52:26Z</time>
      </trkpt>
      <trkpt lat="46.04126" lon="6.24768">
        <ele>794.19</ele>
        <time>2020-04-01T16:52:27Z</time>
      </trkpt>
      <trkpt lat="46.04145" lon="6.2479">
        <ele>793.22</ele>
        <time>2020-04-01T16:52:28Z</time>
      </trkpt>
      <trkpt lat="46.04164" lon="6.24812">
        <ele>792.26</ele>
        <time>2020-04-01T16:52:29Z</time>
      </trkpt>
      <trkpt lat="46.04183" lon="6.24835">
        <ele>791.3</ele>
        <time>2020-04-01T16:52:30Z</time>
      </trkpt>
      <trkpt lat="46.04328" lon="6.2505">
        <ele>791.78</ele>
        <time>2020-04-01T16:52:39Z</time>
      </trkpt>
      <trkpt lat="46.04341" lon="6.25076">
        <ele>792.26</ele>
        <time>2020-04-01T16:52:40Z</time>
      </trkpt>
      <trkpt lat="46.04353" lon="6.25104">
        <ele>793.71</ele>
        <time>2020-04-01T16:52:41Z</time>
      </trkpt>
      <trkpt lat="46.04363" lon="6.25134">
        <ele>795.15</ele>
        <time>2020-04-01T16:52:42Z</time>
      </trkpt>
      <trkpt lat="46.04373" lon="6.25164">
        <ele>796.11</ele>
        <time>2020-04-01T16:52:43Z</time>
      </trkpt>
      <trkpt lat="46.04379" lon="6.25195">
        <ele>797.07</ele>
        <time>2020-04-01T16:52:44Z</time>
      </trkpt>
      <trkpt lat="46.04453" lon="6.25502">
        <ele>806.2</ele>
        <time>2020-04-01T16:52:54Z</time>
      </trkpt>
      <trkpt lat="46.0455" lon="6.25714">
        <ele>807.64</ele>
        <time>2020-04-01T16:53:02Z</time>
      </trkpt>
      <trkpt lat="46.04694" lon="6.26008">
        <ele>804.76</ele>
        <time>2020-04-01T16:53:14Z</time>
      </trkpt>
      <trkpt lat="46.04806" lon="6.26243">
        <ele>798.51</ele>
        <time>2020-04-01T16:53:24Z</time>
      </trkpt>
      <trkpt lat="46.04877" lon="6.26369">
        <ele>793.22</ele>
        <time>2020-04-01T16:53:32Z</time>
      </trkpt>
      <trkpt lat="46.0498" lon="6.26468">
        <ele>786.02</ele>
        <time>2020-04-01T16:53:41Z</time>
      </trkpt>
      <trkpt lat="46.05043" lon="6.26526">
        <ele>781.69</ele>
        <time>2020-04-01T16:53:47Z</time>
      </trkpt>
      <trkpt lat="46.05124" lon="6.26678">
        <ele>776.4</ele>
        <time>2020-04-01T16:53:55Z</time>
      </trkpt>
      <trkpt lat="46.05148" lon="6.26841">
        <ele>773.52</ele>
        <time>2020-04-01T16:54:03Z</time>
      </trkpt>
      <trkpt lat="46.05143" lon="6.2692">
        <ele>772.56</ele>
        <time>2020-04-01T16:54:07Z</time>
      </trkpt>
      <trkpt lat="46.05125" lon="6.27143">
        <ele>770.15</ele>
        <time>2020-04-01T16:54:17Z</time>
      </trkpt>
      <trkpt lat="46.05129" lon="6.27321">
        <ele>766.79</ele>
        <time>2020-04-01T16:54:23Z</time>
      </trkpt>
      <trkpt lat="46.05156" lon="6.27516">
        <ele>761.02</ele>
        <time>2020-04-01T16:54:28Z</time>
      </trkpt>
      <trkpt lat="46.05236" lon="6.27802">
        <ele>754.29</ele>
        <time>2020-04-01T16:54:37Z</time>
      </trkpt>
      <trkpt lat="46.05359" lon="6.28152">
        <ele>748.52</ele>
        <time>2020-04-01T16:54:49Z</time>
      </trkpt>
      <trkpt lat="46.05466" lon="6.28456">
        <ele>739.87</ele>
        <time>2020-04-01T16:55:00Z</time>
      </trkpt>
      <trkpt lat="46.05578" lon="6.28777">
        <ele>733.14</ele>
        <time>2020-04-01T16:55:11Z</time>
      </trkpt>
      <trkpt lat="46.0566" lon="6.28929">
        <ele>724.97</ele>
        <time>2020-04-01T16:55:17Z</time>
      </trkpt>
      <trkpt lat="46.05678" lon="6.28948">
        <ele>724.01</ele>
        <time>2020-04-01T16:55:18Z</time>
      </trkpt>
      <trkpt lat="46.05698" lon="6.28963">
        <ele>722.57</ele>
        <time>2020-04-01T16:55:19Z</time>
      </trkpt>
      <trkpt lat="46.05718" lon="6.28977">
        <ele>721.13</ele>
        <time>2020-04-01T16:55:20Z</time>
      </trkpt>
      <trkpt lat="46.05739" lon="6.2899">
        <ele>720.16</ele>
        <time>2020-04-01T16:55:21Z</time>
      </trkpt>
      <trkpt lat="46.05761" lon="6.28998">
        <ele>719.2</ele>
        <time>2020-04-01T16:55:22Z</time>
      </trkpt>
      <trkpt lat="46.05783" lon="6.29004">
        <ele>717.76</ele>
        <time>2020-04-01T16:55:23Z</time>
      </trkpt>
      <trkpt lat="46.05807" lon="6.29008">
        <ele>716.8</ele>
        <time>2020-04-01T16:55:24Z</time>
      </trkpt>
      <trkpt lat="46.0583" lon="6.29009">
        <ele>715.36</ele>
        <time>2020-04-01T16:55:25Z</time>
      </trkpt>
      <trkpt lat="46.05853" lon="6.29006">
        <ele>714.4</ele>
        <time>2020-04-01T16:55:26Z</time>
      </trkpt>
      <trkpt lat="46.05877" lon="6.29003">
        <ele>712.95</ele>
        <time>2020-04-01T16:55:27Z</time>
      </trkpt>
      <trkpt lat="46.05901" lon="6.28998">
        <ele>711.99</ele>
        <time>2020-04-01T16:55:28Z</time>
      </trkpt>
      <trkpt lat="46.06131" lon="6.28921">
        <ele>700.46</ele>
        <time>2020-04-01T16:55:38Z</time>
      </trkpt>
      <trkpt lat="46.0636" lon="6.2885">
        <ele>687</ele>
        <time>2020-04-01T16:55:49Z</time>
      </trkpt>
      <trkpt lat="46.06416" lon="6.28838">
        <ele>683.15</ele>
        <time>2020-04-01T16:55:53Z</time>
      </trkpt>
      <trkpt lat="46.06425" lon="6.28837">
        <ele>682.19</ele>
        <time>2020-04-01T16:55:54Z</time>
      </trkpt>
      <trkpt lat="46.06434" lon="6.28858">
        <ele>681.23</ele>
        <time>2020-04-01T16:55:55Z</time>
      </trkpt>
      <trkpt lat="46.06441" lon="6.28859">
        <ele>680.75</ele>
        <time>2020-04-01T16:55:56Z</time>
      </trkpt>
      <trkpt lat="46.06454" lon="6.28851">
        <ele>680.27</ele>
        <time>2020-04-01T16:55:57Z</time>
      </trkpt>
      <trkpt lat="46.06459" lon="6.28832">
        <ele>679.79</ele>
        <time>2020-04-01T16:55:58Z</time>
      </trkpt>
      <trkpt lat="46.06471" lon="6.28829">
        <ele>679.31</ele>
        <time>2020-04-01T16:55:59Z</time>
      </trkpt>
      <trkpt lat="46.06485" lon="6.28825">
        <ele>678.83</ele>
        <time>2020-04-01T16:56:00Z</time>
      </trkpt>
      <trkpt lat="46.06501" lon="6.2882">
        <ele>678.35</ele>
        <time>2020-04-01T16:56:01Z</time>
      </trkpt>
      <trkpt lat="46.06653" lon="6.28729">
        <ele>671.14</ele>
        <time>2020-04-01T16:56:09Z</time>
      </trkpt>
      <trkpt lat="46.06752" lon="6.28679">
        <ele>665.85</ele>
        <time>2020-04-01T16:56:14Z</time>
      </trkpt>
      <trkpt lat="46.06773" lon="6.28675">
        <ele>664.89</ele>
        <time>2020-04-01T16:56:15Z</time>
      </trkpt>
      <trkpt lat="46.06795" lon="6.28671">
        <ele>663.93</ele>
        <time>2020-04-01T16:56:16Z</time>
      </trkpt>
      <trkpt lat="46.06816" lon="6.28677">
        <ele>662.97</ele>
        <time>2020-04-01T16:56:17Z</time>
      </trkpt>
      <trkpt lat="46.06838" lon="6.28682">
        <ele>662.01</ele>
        <time>2020-04-01T16:56:18Z</time>
      </trkpt>
      <trkpt lat="46.0686" lon="6.28689">
        <ele>660.56</ele>
        <time>2020-04-01T16:56:19Z</time>
      </trkpt>
      <trkpt lat="46.0688" lon="6.28701">
        <ele>659.6</ele>
        <time>2020-04-01T16:56:20Z</time>
      </trkpt>
      <trkpt lat="46.06901" lon="6.28713">
        <ele>658.64</ele>
        <time>2020-04-01T16:56:21Z</time>
      </trkpt>
      <trkpt lat="46.06921" lon="6.28727">
        <ele>657.68</ele>
        <time>2020-04-01T16:56:22Z</time>
      </trkpt>
      <trkpt lat="46.07086" lon="6.28815">
        <ele>647.59</ele>
        <time>2020-04-01T16:56:30Z</time>
      </trkpt>
      <trkpt lat="46.07331" lon="6.28848">
        <ele>632.2</ele>
        <time>2020-04-01T16:56:41Z</time>
      </trkpt>
      <trkpt lat="46.07373" lon="6.28871">
        <ele>629.8</ele>
        <time>2020-04-01T16:56:43Z</time>
      </trkpt>
      <trkpt lat="46.07392" lon="6.28887">
        <ele>628.36</ele>
        <time>2020-04-01T16:56:44Z</time>
      </trkpt>
      <trkpt lat="46.0741" lon="6.28905">
        <ele>627.4</ele>
        <time>2020-04-01T16:56:45Z</time>
      </trkpt>
      <trkpt lat="46.07425" lon="6.28928">
        <ele>626.44</ele>
        <time>2020-04-01T16:56:46Z</time>
      </trkpt>
      <trkpt lat="46.0744" lon="6.28951">
        <ele>625.47</ele>
        <time>2020-04-01T16:56:47Z</time>
      </trkpt>
      <trkpt lat="46.07453" lon="6.28975">
        <ele>624.51</ele>
        <time>2020-04-01T16:56:48Z</time>
      </trkpt>
      <trkpt lat="46.07464" lon="6.29002">
        <ele>623.55</ele>
        <time>2020-04-01T16:56:49Z</time>
      </trkpt>
      <trkpt lat="46.07473" lon="6.29031">
        <ele>622.59</ele>
        <time>2020-04-01T16:56:50Z</time>
      </trkpt>
      <trkpt lat="46.0748" lon="6.2906">
        <ele>622.11</ele>
        <time>2020-04-01T16:56:51Z</time>
      </trkpt>
      <trkpt lat="46.07513" lon="6.2918">
        <ele>617.78</ele>
        <time>2020-04-01T16:56:56Z</time>
      </trkpt>
      <trkpt lat="46.07522" lon="6.29206">
        <ele>616.82</ele>
        <time>2020-04-01T16:56:57Z</time>
      </trkpt>
      <trkpt lat="46.07516" lon="6.29225">
        <ele>615.86</ele>
        <time>2020-04-01T16:56:58Z</time>
      </trkpt>
      <trkpt lat="46.07509" lon="6.29245">
        <ele>615.86</ele>
        <time>2020-04-01T16:56:59Z</time>
      </trkpt>
      <trkpt lat="46.07502" lon="6.29268">
        <ele>615.86</ele>
        <time>2020-04-01T16:57:00Z</time>
      </trkpt>
      <trkpt lat="46.07474" lon="6.29348">
        <ele>614.42</ele>
        <time>2020-04-01T16:57:03Z</time>
      </trkpt>
      <trkpt lat="46.07463" lon="6.29375">
        <ele>613.46</ele>
        <time>2020-04-01T16:57:04Z</time>
      </trkpt>
      <trkpt lat="46.0745" lon="6.29398">
        <ele>612.5</ele>
        <time>2020-04-01T16:57:05Z</time>
      </trkpt>
      <trkpt lat="46.07297" lon="6.29625">
        <ele>603.85</ele>
        <time>2020-04-01T16:57:16Z</time>
      </trkpt>
      <trkpt lat="46.07259" lon="6.29675">
        <ele>600.96</ele>
        <time>2020-04-01T16:57:19Z</time>
      </trkpt>
      <trkpt lat="46.07246" lon="6.29691">
        <ele>600.48</ele>
        <time>2020-04-01T16:57:20Z</time>
      </trkpt>
      <trkpt lat="46.07151" lon="6.29796">
        <ele>594.71</ele>
        <time>2020-04-01T16:57:28Z</time>
      </trkpt>
      <trkpt lat="46.07099" lon="6.29925">
        <ele>590.87</ele>
        <time>2020-04-01T16:57:36Z</time>
      </trkpt>
      <trkpt lat="46.0708" lon="6.30029">
        <ele>590.87</ele>
        <time>2020-04-01T16:57:43Z</time>
      </trkpt>
      <trkpt lat="46.07074" lon="6.30047">
        <ele>590.87</ele>
        <time>2020-04-01T16:57:44Z</time>
      </trkpt>
      <trkpt lat="46.07077" lon="6.30055">
        <ele>590.87</ele>
        <time>2020-04-01T16:57:45Z</time>
      </trkpt>
      <trkpt lat="46.07085" lon="6.30077">
        <ele>589.91</ele>
        <time>2020-04-01T16:57:47Z</time>
      </trkpt>
      <trkpt lat="46.07083" lon="6.30088">
        <ele>589.91</ele>
        <time>2020-04-01T16:57:48Z</time>
      </trkpt>
      <trkpt lat="46.0708" lon="6.30101">
        <ele>589.43</ele>
        <time>2020-04-01T16:57:49Z</time>
      </trkpt>
      <trkpt lat="46.07075" lon="6.30113">
        <ele>589.43</ele>
        <time>2020-04-01T16:57:50Z</time>
      </trkpt>
      <trkpt lat="46.0707" lon="6.30125">
        <ele>589.43</ele>
        <time>2020-04-01T16:57:51Z</time>
      </trkpt>
      <trkpt lat="46.07064" lon="6.30138">
        <ele>588.95</ele>
        <time>2020-04-01T16:57:52Z</time>
      </trkpt>
      <trkpt lat="46.07058" lon="6.30151">
        <ele>588.95</ele>
        <time>2020-04-01T16:57:53Z</time>
      </trkpt>
      <trkpt lat="46.07055" lon="6.30168">
        <ele>588.95</ele>
        <time>2020-04-01T16:57:54Z</time>
      </trkpt>
      <trkpt lat="46.07046" lon="6.30211">
        <ele>587.98</ele>
        <time>2020-04-01T16:57:57Z</time>
      </trkpt>
      <trkpt lat="46.07044" lon="6.30221">
        <ele>587.5</ele>
        <time>2020-04-01T16:57:58Z</time>
      </trkpt>
      <trkpt lat="46.07031" lon="6.30238">
        <ele>587.5</ele>
        <time>2020-04-01T16:57:59Z</time>
      </trkpt>
      <trkpt lat="46.07026" lon="6.3024">
        <ele>587.02</ele>
        <time>2020-04-01T16:58:00Z</time>
      </trkpt>
      <trkpt lat="46.07015" lon="6.30245">
        <ele>587.02</ele>
        <time>2020-04-01T16:58:01Z</time>
      </trkpt>
      <trkpt lat="46.0691" lon="6.30297">
        <ele>585.58</ele>
        <time>2020-04-01T16:58:09Z</time>
      </trkpt>
      <trkpt lat="46.06872" lon="6.30315">
        <ele>584.62</ele>
        <time>2020-04-01T16:58:14Z</time>
      </trkpt>
      <trkpt lat="46.06868" lon="6.30317">
        <ele>584.62</ele>
        <time>2020-04-01T16:58:15Z</time>
      </trkpt>
      <trkpt lat="46.06859" lon="6.30321">
        <ele>584.62</ele>
        <time>2020-04-01T16:58:16Z</time>
      </trkpt>
      <trkpt lat="46.06859" lon="6.30322">
        <ele>584.62</ele>
        <time>2020-04-01T16:58:17Z</time>
      </trkpt>
      <trkpt lat="46.06859" lon="6.30331">
        <ele>584.14</ele>
        <time>2020-04-01T16:58:18Z</time>
      </trkpt>
      <trkpt lat="46.06859" lon="6.3034">
        <ele>584.14</ele>
        <time>2020-04-01T16:58:19Z</time>
      </trkpt>
      <trkpt lat="46.06858" lon="6.3035">
        <ele>584.14</ele>
        <time>2020-04-01T16:58:20Z</time>
      </trkpt>
      <trkpt lat="46.06858" lon="6.30359">
        <ele>583.66</ele>
        <time>2020-04-01T16:58:21Z</time>
      </trkpt>
      <trkpt lat="46.06858" lon="6.3037">
        <ele>583.18</ele>
        <time>2020-04-01T16:58:22Z</time>
      </trkpt>
      <trkpt lat="46.06857" lon="6.30384">
        <ele>582.7</ele>
        <time>2020-04-01T16:58:23Z</time>
      </trkpt>
      <trkpt lat="46.06854" lon="6.30394">
        <ele>582.22</ele>
        <time>2020-04-01T16:58:24Z</time>
      </trkpt>
      <trkpt lat="46.06849" lon="6.30407">
        <ele>581.73</ele>
        <time>2020-04-01T16:58:25Z</time>
      </trkpt>
      <trkpt lat="46.06844" lon="6.3042">
        <ele>581.25</ele>
        <time>2020-04-01T16:58:26Z</time>
      </trkpt>
      <trkpt lat="46.0684" lon="6.30433">
        <ele>580.77</ele>
        <time>2020-04-01T16:58:27Z</time>
      </trkpt>
      <trkpt lat="46.06812" lon="6.30513">
        <ele>577.41</ele>
        <time>2020-04-01T16:58:35Z</time>
      </trkpt>
      <trkpt lat="46.06808" lon="6.30524">
        <ele>576.93</ele>
        <time>2020-04-01T16:58:36Z</time>
      </trkpt>
      <trkpt lat="46.06804" lon="6.30536">
        <ele>576.93</ele>
        <time>2020-04-01T16:58:37Z</time>
      </trkpt>
      <trkpt lat="46.06799" lon="6.30549">
        <ele>576.45</ele>
        <time>2020-04-01T16:58:38Z</time>
      </trkpt>
      <trkpt lat="46.06791" lon="6.30578">
        <ele>575.49</ele>
        <time>2020-04-01T16:58:40Z</time>
      </trkpt>
      <trkpt lat="46.06787" lon="6.30591">
        <ele>575.01</ele>
        <time>2020-04-01T16:58:41Z</time>
      </trkpt>
      <trkpt lat="46.06754" lon="6.30684">
        <ele>570.68</ele>
        <time>2020-04-01T16:58:48Z</time>
      </trkpt>
      <trkpt lat="46.06748" lon="6.30697">
        <ele>569.72</ele>
        <time>2020-04-01T16:58:50Z</time>
      </trkpt>
      <trkpt lat="46.0668" lon="6.30824">
        <ele>566.35</ele>
        <time>2020-04-01T16:58:58Z</time>
      </trkpt>
      <trkpt lat="46.06654" lon="6.30872">
        <ele>565.39</ele>
        <time>2020-04-01T16:59:02Z</time>
      </trkpt>
      <trkpt lat="46.0665" lon="6.3088">
        <ele>564.91</ele>
        <time>2020-04-01T16:59:03Z</time>
      </trkpt>
      <trkpt lat="46.06646" lon="6.30887">
        <ele>563.95</ele>
        <time>2020-04-01T16:59:04Z</time>
      </trkpt>
      <trkpt lat="46.06643" lon="6.30893">
        <ele>563.95</ele>
        <time>2020-04-01T16:59:05Z</time>
      </trkpt>
      <trkpt lat="46.0664" lon="6.30898">
        <ele>563.47</ele>
        <time>2020-04-01T16:59:06Z</time>
      </trkpt>
      <trkpt lat="46.06643" lon="6.30909">
        <ele>562.51</ele>
        <time>2020-04-01T16:59:08Z</time>
      </trkpt>
      <trkpt lat="46.06653" lon="6.3091">
        <ele>562.51</ele>
        <time>2020-04-01T16:59:09Z</time>
      </trkpt>
      <trkpt lat="46.06661" lon="6.30908">
        <ele>562.03</ele>
        <time>2020-04-01T16:59:10Z</time>
      </trkpt>
      <trkpt lat="46.0667" lon="6.30906">
        <ele>561.55</ele>
        <time>2020-04-01T16:59:11Z</time>
      </trkpt>
      <trkpt lat="46.06686" lon="6.30902">
        <ele>561.55</ele>
        <time>2020-04-01T16:59:13Z</time>
      </trkpt>
      <trkpt lat="46.06694" lon="6.30898">
        <ele>561.55</ele>
        <time>2020-04-01T16:59:14Z</time>
      </trkpt>
      <trkpt lat="46.067" lon="6.30888">
        <ele>562.03</ele>
        <time>2020-04-01T16:59:15Z</time>
      </trkpt>
      <trkpt lat="46.06744" lon="6.30821">
        <ele>562.03</ele>
        <time>2020-04-01T16:59:22Z</time>
      </trkpt>
      <trkpt lat="46.06747" lon="6.30815">
        <ele>561.55</ele>
        <time>2020-04-01T16:59:23Z</time>
      </trkpt>
      <trkpt lat="46.06749" lon="6.30812">
        <ele>561.55</ele>
        <time>2020-04-01T16:59:24Z</time>
      </trkpt>
      <trkpt lat="46.06751" lon="6.3081">
        <ele>561.55</ele>
        <time>2020-04-01T16:59:25Z</time>
      </trkpt>
      <trkpt lat="46.06751" lon="6.3081">
        <ele>561.07</ele>
        <time>2020-04-01T16:59:35Z</time>
      </trkpt>
      <trkpt lat="46.06753" lon="6.30807">
        <ele>560.11</ele>
        <time>2020-04-01T17:00:03Z</time>
      </trkpt>
    </trkseg>
  </trk>
</gpx>